<?xml version="1.0" encoding="UTF-8" standalone="no" ?>
<gpx xmlns="http://www.topografix.com/GPX/1/1" xmlns:xsi="http://www.w3.org/2001/XMLSchema-instance" xsi:schemaLocation="http://www.topografix.com/GPX/1/1 http://www.topografix.com/GPX/1/1/gpx.xsd" version="1.1" creator="VisuGPX - https://www.visugpx.com">
  <metadata>
    <name>Traversée Blanche</name>
    <desc><![CDATA[Traversée blanche Lavastrie Seriers dimanche 26 février 2017]]></desc>
  </metadata>
  <trk>
    <name><![CDATA[LAVASTRIE SERIERS]]></name>
    <trkseg>
      <trkpt lat="44.93495" lon="3.0418">
        <ele>1034.04</ele>
        <time>2017-02-26T13:26:27Z</time>
      </trkpt>
      <trkpt lat="44.93496" lon="3.0418">
        <ele>1034.04</ele>
        <time>2017-02-26T13:26:28Z</time>
      </trkpt>
      <trkpt lat="44.93496" lon="3.04181">
        <ele>971.55</ele>
        <time>2017-02-26T13:26:33Z</time>
      </trkpt>
      <trkpt lat="44.93496" lon="3.04181">
        <ele>969.15</ele>
        <time>2017-02-26T13:26:35Z</time>
      </trkpt>
      <trkpt lat="44.93494" lon="3.04185">
        <ele>968.67</ele>
        <time>2017-02-26T13:26:54Z</time>
      </trkpt>
      <trkpt lat="44.93497" lon="3.04187">
        <ele>968.67</ele>
        <time>2017-02-26T13:27:13Z</time>
      </trkpt>
      <trkpt lat="44.93499" lon="3.04188">
        <ele>968.67</ele>
        <time>2017-02-26T13:27:15Z</time>
      </trkpt>
      <trkpt lat="44.93505" lon="3.04193">
        <ele>970.11</ele>
        <time>2017-02-26T13:27:22Z</time>
      </trkpt>
      <trkpt lat="44.93522" lon="3.04203">
        <ele>970.59</ele>
        <time>2017-02-26T13:27:38Z</time>
      </trkpt>
      <trkpt lat="44.93535" lon="3.04218">
        <ele>971.07</ele>
        <time>2017-02-26T13:27:53Z</time>
      </trkpt>
      <trkpt lat="44.93537" lon="3.0422">
        <ele>970.11</ele>
        <time>2017-02-26T13:27:55Z</time>
      </trkpt>
      <trkpt lat="44.93552" lon="3.04233">
        <ele>970.11</ele>
        <time>2017-02-26T13:28:11Z</time>
      </trkpt>
      <trkpt lat="44.9356" lon="3.04241">
        <ele>972.03</ele>
        <time>2017-02-26T13:28:19Z</time>
      </trkpt>
      <trkpt lat="44.93573" lon="3.04256">
        <ele>972.99</ele>
        <time>2017-02-26T13:28:35Z</time>
      </trkpt>
      <trkpt lat="44.93584" lon="3.04268">
        <ele>972.99</ele>
        <time>2017-02-26T13:28:47Z</time>
      </trkpt>
      <trkpt lat="44.93598" lon="3.04282">
        <ele>973.95</ele>
        <time>2017-02-26T13:29:04Z</time>
      </trkpt>
      <trkpt lat="44.936" lon="3.04283">
        <ele>972.99</ele>
        <time>2017-02-26T13:29:06Z</time>
      </trkpt>
      <trkpt lat="44.93605" lon="3.04288">
        <ele>974.43</ele>
        <time>2017-02-26T13:29:12Z</time>
      </trkpt>
      <trkpt lat="44.93617" lon="3.04301">
        <ele>975.88</ele>
        <time>2017-02-26T13:29:27Z</time>
      </trkpt>
      <trkpt lat="44.93627" lon="3.0431">
        <ele>976.36</ele>
        <time>2017-02-26T13:29:38Z</time>
      </trkpt>
      <trkpt lat="44.9364" lon="3.04323">
        <ele>978.76</ele>
        <time>2017-02-26T13:29:54Z</time>
      </trkpt>
      <trkpt lat="44.93645" lon="3.04332">
        <ele>980.2</ele>
        <time>2017-02-26T13:30:02Z</time>
      </trkpt>
      <trkpt lat="44.93637" lon="3.04349">
        <ele>980.68</ele>
        <time>2017-02-26T13:30:15Z</time>
      </trkpt>
      <trkpt lat="44.93631" lon="3.04365">
        <ele>980.68</ele>
        <time>2017-02-26T13:30:30Z</time>
      </trkpt>
      <trkpt lat="44.93632" lon="3.04369">
        <ele>980.68</ele>
        <time>2017-02-26T13:30:33Z</time>
      </trkpt>
      <trkpt lat="44.93633" lon="3.04372">
        <ele>981.64</ele>
        <time>2017-02-26T13:30:36Z</time>
      </trkpt>
      <trkpt lat="44.93636" lon="3.04388">
        <ele>983.57</ele>
        <time>2017-02-26T13:30:49Z</time>
      </trkpt>
      <trkpt lat="44.93633" lon="3.04411">
        <ele>985.01</ele>
        <time>2017-02-26T13:31:04Z</time>
      </trkpt>
      <trkpt lat="44.93629" lon="3.04428">
        <ele>985.97</ele>
        <time>2017-02-26T13:31:17Z</time>
      </trkpt>
      <trkpt lat="44.93625" lon="3.04447">
        <ele>986.93</ele>
        <time>2017-02-26T13:31:32Z</time>
      </trkpt>
      <trkpt lat="44.93622" lon="3.04466">
        <ele>988.37</ele>
        <time>2017-02-26T13:31:47Z</time>
      </trkpt>
      <trkpt lat="44.93618" lon="3.04488">
        <ele>989.33</ele>
        <time>2017-02-26T13:32:02Z</time>
      </trkpt>
      <trkpt lat="44.93618" lon="3.045">
        <ele>990.3</ele>
        <time>2017-02-26T13:32:14Z</time>
      </trkpt>
      <trkpt lat="44.93631" lon="3.04504">
        <ele>992.22</ele>
        <time>2017-02-26T13:32:29Z</time>
      </trkpt>
      <trkpt lat="44.93641" lon="3.04508">
        <ele>993.66</ele>
        <time>2017-02-26T13:32:41Z</time>
      </trkpt>
      <trkpt lat="44.93644" lon="3.04509">
        <ele>994.14</ele>
        <time>2017-02-26T13:32:44Z</time>
      </trkpt>
      <trkpt lat="44.93647" lon="3.04512">
        <ele>994.62</ele>
        <time>2017-02-26T13:32:48Z</time>
      </trkpt>
      <trkpt lat="44.9366" lon="3.04526">
        <ele>997.51</ele>
        <time>2017-02-26T13:33:04Z</time>
      </trkpt>
      <trkpt lat="44.93672" lon="3.04527">
        <ele>998.47</ele>
        <time>2017-02-26T13:33:18Z</time>
      </trkpt>
      <trkpt lat="44.93672" lon="3.04526">
        <ele>998.95</ele>
        <time>2017-02-26T13:33:19Z</time>
      </trkpt>
      <trkpt lat="44.93691" lon="3.0451">
        <ele>998.47</ele>
        <time>2017-02-26T13:33:39Z</time>
      </trkpt>
      <trkpt lat="44.93694" lon="3.04508">
        <ele>997.51</ele>
        <time>2017-02-26T13:33:41Z</time>
      </trkpt>
      <trkpt lat="44.93702" lon="3.04506">
        <ele>996.54</ele>
        <time>2017-02-26T13:33:49Z</time>
      </trkpt>
      <trkpt lat="44.93708" lon="3.04508">
        <ele>998.95</ele>
        <time>2017-02-26T13:33:55Z</time>
      </trkpt>
      <trkpt lat="44.93728" lon="3.0451">
        <ele>999.91</ele>
        <time>2017-02-26T13:34:12Z</time>
      </trkpt>
      <trkpt lat="44.93742" lon="3.04506">
        <ele>999.43</ele>
        <time>2017-02-26T13:34:22Z</time>
      </trkpt>
      <trkpt lat="44.93759" lon="3.04507">
        <ele>999.43</ele>
        <time>2017-02-26T13:34:37Z</time>
      </trkpt>
      <trkpt lat="44.9377" lon="3.04512">
        <ele>1000.87</ele>
        <time>2017-02-26T13:34:47Z</time>
      </trkpt>
      <trkpt lat="44.93793" lon="3.04519">
        <ele>1001.35</ele>
        <time>2017-02-26T13:35:03Z</time>
      </trkpt>
      <trkpt lat="44.93811" lon="3.04524">
        <ele>1000.87</ele>
        <time>2017-02-26T13:35:18Z</time>
      </trkpt>
      <trkpt lat="44.93818" lon="3.0452">
        <ele>1000.87</ele>
        <time>2017-02-26T13:35:24Z</time>
      </trkpt>
      <trkpt lat="44.93824" lon="3.04509">
        <ele>1000.87</ele>
        <time>2017-02-26T13:35:33Z</time>
      </trkpt>
      <trkpt lat="44.93829" lon="3.04495">
        <ele>1002.79</ele>
        <time>2017-02-26T13:35:42Z</time>
      </trkpt>
      <trkpt lat="44.93844" lon="3.04482">
        <ele>1003.75</ele>
        <time>2017-02-26T13:35:55Z</time>
      </trkpt>
      <trkpt lat="44.93856" lon="3.04482">
        <ele>1004.72</ele>
        <time>2017-02-26T13:36:07Z</time>
      </trkpt>
      <trkpt lat="44.93874" lon="3.04476">
        <ele>1005.2</ele>
        <time>2017-02-26T13:36:23Z</time>
      </trkpt>
      <trkpt lat="44.93893" lon="3.0447">
        <ele>1006.64</ele>
        <time>2017-02-26T13:36:39Z</time>
      </trkpt>
      <trkpt lat="44.93906" lon="3.04463">
        <ele>1007.6</ele>
        <time>2017-02-26T13:36:51Z</time>
      </trkpt>
      <trkpt lat="44.93921" lon="3.04456">
        <ele>1009.52</ele>
        <time>2017-02-26T13:37:05Z</time>
      </trkpt>
      <trkpt lat="44.93923" lon="3.04455">
        <ele>1009.52</ele>
        <time>2017-02-26T13:37:08Z</time>
      </trkpt>
      <trkpt lat="44.9394" lon="3.0445">
        <ele>1010.96</ele>
        <time>2017-02-26T13:37:23Z</time>
      </trkpt>
      <trkpt lat="44.93959" lon="3.04439">
        <ele>1012.41</ele>
        <time>2017-02-26T13:37:40Z</time>
      </trkpt>
      <trkpt lat="44.93977" lon="3.04425">
        <ele>1012.89</ele>
        <time>2017-02-26T13:37:56Z</time>
      </trkpt>
      <trkpt lat="44.93992" lon="3.04411">
        <ele>1013.37</ele>
        <time>2017-02-26T13:38:09Z</time>
      </trkpt>
      <trkpt lat="44.93997" lon="3.04404">
        <ele>1013.85</ele>
        <time>2017-02-26T13:38:14Z</time>
      </trkpt>
      <trkpt lat="44.94007" lon="3.04393">
        <ele>1014.33</ele>
        <time>2017-02-26T13:38:26Z</time>
      </trkpt>
      <trkpt lat="44.94015" lon="3.04383">
        <ele>1015.29</ele>
        <time>2017-02-26T13:38:38Z</time>
      </trkpt>
      <trkpt lat="44.94028" lon="3.0437">
        <ele>1015.29</ele>
        <time>2017-02-26T13:38:49Z</time>
      </trkpt>
      <trkpt lat="44.94032" lon="3.04366">
        <ele>1015.77</ele>
        <time>2017-02-26T13:38:53Z</time>
      </trkpt>
      <trkpt lat="44.94051" lon="3.04349">
        <ele>1015.77</ele>
        <time>2017-02-26T13:39:10Z</time>
      </trkpt>
      <trkpt lat="44.94055" lon="3.04343">
        <ele>1016.73</ele>
        <time>2017-02-26T13:39:15Z</time>
      </trkpt>
      <trkpt lat="44.94068" lon="3.04329">
        <ele>1017.21</ele>
        <time>2017-02-26T13:39:28Z</time>
      </trkpt>
      <trkpt lat="44.94082" lon="3.04311">
        <ele>1017.69</ele>
        <time>2017-02-26T13:39:43Z</time>
      </trkpt>
      <trkpt lat="44.94095" lon="3.04296">
        <ele>1018.17</ele>
        <time>2017-02-26T13:39:55Z</time>
      </trkpt>
      <trkpt lat="44.94112" lon="3.04279">
        <ele>1019.13</ele>
        <time>2017-02-26T13:40:09Z</time>
      </trkpt>
      <trkpt lat="44.94132" lon="3.04264">
        <ele>1018.65</ele>
        <time>2017-02-26T13:40:25Z</time>
      </trkpt>
      <trkpt lat="44.94142" lon="3.04256">
        <ele>1018.65</ele>
        <time>2017-02-26T13:40:38Z</time>
      </trkpt>
      <trkpt lat="44.94156" lon="3.04241">
        <ele>1018.65</ele>
        <time>2017-02-26T13:40:52Z</time>
      </trkpt>
      <trkpt lat="44.94163" lon="3.04234">
        <ele>1018.65</ele>
        <time>2017-02-26T13:40:58Z</time>
      </trkpt>
      <trkpt lat="44.94168" lon="3.04229">
        <ele>1018.65</ele>
        <time>2017-02-26T13:41:03Z</time>
      </trkpt>
      <trkpt lat="44.94179" lon="3.04227">
        <ele>1017.69</ele>
        <time>2017-02-26T13:41:13Z</time>
      </trkpt>
      <trkpt lat="44.94198" lon="3.04238">
        <ele>1015.29</ele>
        <time>2017-02-26T13:41:30Z</time>
      </trkpt>
      <trkpt lat="44.94218" lon="3.04241">
        <ele>1011.93</ele>
        <time>2017-02-26T13:41:46Z</time>
      </trkpt>
      <trkpt lat="44.94233" lon="3.04236">
        <ele>1009.04</ele>
        <time>2017-02-26T13:41:59Z</time>
      </trkpt>
      <trkpt lat="44.94248" lon="3.04227">
        <ele>1007.12</ele>
        <time>2017-02-26T13:42:10Z</time>
      </trkpt>
      <trkpt lat="44.94261" lon="3.04223">
        <ele>1004.72</ele>
        <time>2017-02-26T13:42:24Z</time>
      </trkpt>
      <trkpt lat="44.94274" lon="3.04214">
        <ele>1001.35</ele>
        <time>2017-02-26T13:42:37Z</time>
      </trkpt>
      <trkpt lat="44.94294" lon="3.04203">
        <ele>998.47</ele>
        <time>2017-02-26T13:42:54Z</time>
      </trkpt>
      <trkpt lat="44.94309" lon="3.04193">
        <ele>997.99</ele>
        <time>2017-02-26T13:43:08Z</time>
      </trkpt>
      <trkpt lat="44.94325" lon="3.04177">
        <ele>997.02</ele>
        <time>2017-02-26T13:43:25Z</time>
      </trkpt>
      <trkpt lat="44.9434" lon="3.04168">
        <ele>997.02</ele>
        <time>2017-02-26T13:43:39Z</time>
      </trkpt>
      <trkpt lat="44.94352" lon="3.04159">
        <ele>996.54</ele>
        <time>2017-02-26T13:43:51Z</time>
      </trkpt>
      <trkpt lat="44.94368" lon="3.04146">
        <ele>996.06</ele>
        <time>2017-02-26T13:44:05Z</time>
      </trkpt>
      <trkpt lat="44.94373" lon="3.0414">
        <ele>995.58</ele>
        <time>2017-02-26T13:44:10Z</time>
      </trkpt>
      <trkpt lat="44.94389" lon="3.04124">
        <ele>995.1</ele>
        <time>2017-02-26T13:44:25Z</time>
      </trkpt>
      <trkpt lat="44.94402" lon="3.04112">
        <ele>995.1</ele>
        <time>2017-02-26T13:44:36Z</time>
      </trkpt>
      <trkpt lat="44.94425" lon="3.04101">
        <ele>994.62</ele>
        <time>2017-02-26T13:44:53Z</time>
      </trkpt>
      <trkpt lat="44.94439" lon="3.04095">
        <ele>994.62</ele>
        <time>2017-02-26T13:45:07Z</time>
      </trkpt>
      <trkpt lat="44.94454" lon="3.04089">
        <ele>994.14</ele>
        <time>2017-02-26T13:45:21Z</time>
      </trkpt>
      <trkpt lat="44.94471" lon="3.04078">
        <ele>994.14</ele>
        <time>2017-02-26T13:45:35Z</time>
      </trkpt>
      <trkpt lat="44.94487" lon="3.04063">
        <ele>994.14</ele>
        <time>2017-02-26T13:45:49Z</time>
      </trkpt>
      <trkpt lat="44.94501" lon="3.0405">
        <ele>995.58</ele>
        <time>2017-02-26T13:46:02Z</time>
      </trkpt>
      <trkpt lat="44.94504" lon="3.04047">
        <ele>996.06</ele>
        <time>2017-02-26T13:46:05Z</time>
      </trkpt>
      <trkpt lat="44.9452" lon="3.04031">
        <ele>996.54</ele>
        <time>2017-02-26T13:46:19Z</time>
      </trkpt>
      <trkpt lat="44.94534" lon="3.04019">
        <ele>996.54</ele>
        <time>2017-02-26T13:46:32Z</time>
      </trkpt>
      <trkpt lat="44.94547" lon="3.04011">
        <ele>997.51</ele>
        <time>2017-02-26T13:46:45Z</time>
      </trkpt>
      <trkpt lat="44.94563" lon="3.04002">
        <ele>997.99</ele>
        <time>2017-02-26T13:46:58Z</time>
      </trkpt>
      <trkpt lat="44.9458" lon="3.03994">
        <ele>998.47</ele>
        <time>2017-02-26T13:47:13Z</time>
      </trkpt>
      <trkpt lat="44.94596" lon="3.03988">
        <ele>999.43</ele>
        <time>2017-02-26T13:47:26Z</time>
      </trkpt>
      <trkpt lat="44.94614" lon="3.03984">
        <ele>999.91</ele>
        <time>2017-02-26T13:47:42Z</time>
      </trkpt>
      <trkpt lat="44.94626" lon="3.03984">
        <ele>999.91</ele>
        <time>2017-02-26T13:47:54Z</time>
      </trkpt>
      <trkpt lat="44.94646" lon="3.03988">
        <ele>998.47</ele>
        <time>2017-02-26T13:48:08Z</time>
      </trkpt>
      <trkpt lat="44.94664" lon="3.03992">
        <ele>997.51</ele>
        <time>2017-02-26T13:48:23Z</time>
      </trkpt>
      <trkpt lat="44.94676" lon="3.03995">
        <ele>996.54</ele>
        <time>2017-02-26T13:48:36Z</time>
      </trkpt>
      <trkpt lat="44.94695" lon="3.03999">
        <ele>995.58</ele>
        <time>2017-02-26T13:48:51Z</time>
      </trkpt>
      <trkpt lat="44.94719" lon="3.03992">
        <ele>994.14</ele>
        <time>2017-02-26T13:49:09Z</time>
      </trkpt>
      <trkpt lat="44.94721" lon="3.03991">
        <ele>993.66</ele>
        <time>2017-02-26T13:49:10Z</time>
      </trkpt>
      <trkpt lat="44.94736" lon="3.03977">
        <ele>992.22</ele>
        <time>2017-02-26T13:49:26Z</time>
      </trkpt>
      <trkpt lat="44.94742" lon="3.03971">
        <ele>991.26</ele>
        <time>2017-02-26T13:49:32Z</time>
      </trkpt>
      <trkpt lat="44.94751" lon="3.03962">
        <ele>990.78</ele>
        <time>2017-02-26T13:49:40Z</time>
      </trkpt>
      <trkpt lat="44.94766" lon="3.03951">
        <ele>989.81</ele>
        <time>2017-02-26T13:49:51Z</time>
      </trkpt>
      <trkpt lat="44.94782" lon="3.03941">
        <ele>988.85</ele>
        <time>2017-02-26T13:50:04Z</time>
      </trkpt>
      <trkpt lat="44.94804" lon="3.03926">
        <ele>987.89</ele>
        <time>2017-02-26T13:50:20Z</time>
      </trkpt>
      <trkpt lat="44.94814" lon="3.03913">
        <ele>987.41</ele>
        <time>2017-02-26T13:50:29Z</time>
      </trkpt>
      <trkpt lat="44.94828" lon="3.03898">
        <ele>986.93</ele>
        <time>2017-02-26T13:50:41Z</time>
      </trkpt>
      <trkpt lat="44.94838" lon="3.03888">
        <ele>985.01</ele>
        <time>2017-02-26T13:50:50Z</time>
      </trkpt>
      <trkpt lat="44.9485" lon="3.03871">
        <ele>982.6</ele>
        <time>2017-02-26T13:51:03Z</time>
      </trkpt>
      <trkpt lat="44.94851" lon="3.03869">
        <ele>982.6</ele>
        <time>2017-02-26T13:51:04Z</time>
      </trkpt>
      <trkpt lat="44.94862" lon="3.03856">
        <ele>981.64</ele>
        <time>2017-02-26T13:51:12Z</time>
      </trkpt>
      <trkpt lat="44.94875" lon="3.03838">
        <ele>979.72</ele>
        <time>2017-02-26T13:51:20Z</time>
      </trkpt>
      <trkpt lat="44.94884" lon="3.03827">
        <ele>979.72</ele>
        <time>2017-02-26T13:51:33Z</time>
      </trkpt>
      <trkpt lat="44.9489" lon="3.03814">
        <ele>978.76</ele>
        <time>2017-02-26T13:51:45Z</time>
      </trkpt>
      <trkpt lat="44.94896" lon="3.03791">
        <ele>977.32</ele>
        <time>2017-02-26T13:52:01Z</time>
      </trkpt>
      <trkpt lat="44.94899" lon="3.03766">
        <ele>975.88</ele>
        <time>2017-02-26T13:52:16Z</time>
      </trkpt>
      <trkpt lat="44.94902" lon="3.03732">
        <ele>974.91</ele>
        <time>2017-02-26T13:52:32Z</time>
      </trkpt>
      <trkpt lat="44.94904" lon="3.03717">
        <ele>974.43</ele>
        <time>2017-02-26T13:52:40Z</time>
      </trkpt>
      <trkpt lat="44.94909" lon="3.03687">
        <ele>973.47</ele>
        <time>2017-02-26T13:52:55Z</time>
      </trkpt>
      <trkpt lat="44.94909" lon="3.03678">
        <ele>973.47</ele>
        <time>2017-02-26T13:52:59Z</time>
      </trkpt>
      <trkpt lat="44.94911" lon="3.03651">
        <ele>972.51</ele>
        <time>2017-02-26T13:53:14Z</time>
      </trkpt>
      <trkpt lat="44.94915" lon="3.03629">
        <ele>971.55</ele>
        <time>2017-02-26T13:53:27Z</time>
      </trkpt>
      <trkpt lat="44.94919" lon="3.03622">
        <ele>971.55</ele>
        <time>2017-02-26T13:53:33Z</time>
      </trkpt>
      <trkpt lat="44.9492" lon="3.03621">
        <ele>971.07</ele>
        <time>2017-02-26T13:53:34Z</time>
      </trkpt>
      <trkpt lat="44.94921" lon="3.0362">
        <ele>971.07</ele>
        <time>2017-02-26T13:53:35Z</time>
      </trkpt>
      <trkpt lat="44.94924" lon="3.03618">
        <ele>970.11</ele>
        <time>2017-02-26T13:53:39Z</time>
      </trkpt>
      <trkpt lat="44.94931" lon="3.0362">
        <ele>968.67</ele>
        <time>2017-02-26T13:53:45Z</time>
      </trkpt>
      <trkpt lat="44.94936" lon="3.03621">
        <ele>968.18</ele>
        <time>2017-02-26T13:53:49Z</time>
      </trkpt>
      <trkpt lat="44.94956" lon="3.03631">
        <ele>965.3</ele>
        <time>2017-02-26T13:54:05Z</time>
      </trkpt>
      <trkpt lat="44.94967" lon="3.03634">
        <ele>964.34</ele>
        <time>2017-02-26T13:54:16Z</time>
      </trkpt>
      <trkpt lat="44.94977" lon="3.03636">
        <ele>960.98</ele>
        <time>2017-02-26T13:54:27Z</time>
      </trkpt>
      <trkpt lat="44.94986" lon="3.03638">
        <ele>958.09</ele>
        <time>2017-02-26T13:54:37Z</time>
      </trkpt>
      <trkpt lat="44.95002" lon="3.03651">
        <ele>954.73</ele>
        <time>2017-02-26T13:54:51Z</time>
      </trkpt>
      <trkpt lat="44.95011" lon="3.03661">
        <ele>953.28</ele>
        <time>2017-02-26T13:54:59Z</time>
      </trkpt>
      <trkpt lat="44.95022" lon="3.03675">
        <ele>950.88</ele>
        <time>2017-02-26T13:55:09Z</time>
      </trkpt>
      <trkpt lat="44.95026" lon="3.03682">
        <ele>949.44</ele>
        <time>2017-02-26T13:55:21Z</time>
      </trkpt>
      <trkpt lat="44.95028" lon="3.03685">
        <ele>948.96</ele>
        <time>2017-02-26T13:55:25Z</time>
      </trkpt>
      <trkpt lat="44.95034" lon="3.03695">
        <ele>948</ele>
        <time>2017-02-26T13:55:32Z</time>
      </trkpt>
      <trkpt lat="44.95038" lon="3.03715">
        <ele>945.59</ele>
        <time>2017-02-26T13:55:48Z</time>
      </trkpt>
      <trkpt lat="44.95042" lon="3.03737">
        <ele>944.15</ele>
        <time>2017-02-26T13:56:00Z</time>
      </trkpt>
      <trkpt lat="44.95042" lon="3.03741">
        <ele>944.15</ele>
        <time>2017-02-26T13:56:02Z</time>
      </trkpt>
      <trkpt lat="44.95041" lon="3.03763">
        <ele>943.19</ele>
        <time>2017-02-26T13:56:14Z</time>
      </trkpt>
      <trkpt lat="44.9504" lon="3.03783">
        <ele>943.19</ele>
        <time>2017-02-26T13:56:26Z</time>
      </trkpt>
      <trkpt lat="44.95044" lon="3.03794">
        <ele>942.71</ele>
        <time>2017-02-26T13:56:33Z</time>
      </trkpt>
      <trkpt lat="44.9505" lon="3.03817">
        <ele>941.75</ele>
        <time>2017-02-26T13:56:47Z</time>
      </trkpt>
      <trkpt lat="44.95047" lon="3.0384">
        <ele>941.27</ele>
        <time>2017-02-26T13:57:01Z</time>
      </trkpt>
      <trkpt lat="44.95045" lon="3.03863">
        <ele>940.79</ele>
        <time>2017-02-26T13:57:14Z</time>
      </trkpt>
      <trkpt lat="44.95038" lon="3.03885">
        <ele>940.79</ele>
        <time>2017-02-26T13:57:26Z</time>
      </trkpt>
      <trkpt lat="44.95032" lon="3.03907">
        <ele>940.79</ele>
        <time>2017-02-26T13:57:40Z</time>
      </trkpt>
      <trkpt lat="44.95028" lon="3.03928">
        <ele>940.79</ele>
        <time>2017-02-26T13:57:53Z</time>
      </trkpt>
      <trkpt lat="44.95023" lon="3.0395">
        <ele>942.23</ele>
        <time>2017-02-26T13:58:06Z</time>
      </trkpt>
      <trkpt lat="44.95021" lon="3.0397">
        <ele>940.79</ele>
        <time>2017-02-26T13:58:19Z</time>
      </trkpt>
      <trkpt lat="44.95019" lon="3.0399">
        <ele>938.86</ele>
        <time>2017-02-26T13:58:33Z</time>
      </trkpt>
      <trkpt lat="44.95017" lon="3.03994">
        <ele>937.9</ele>
        <time>2017-02-26T13:58:46Z</time>
      </trkpt>
      <trkpt lat="44.95016" lon="3.03998">
        <ele>937.9</ele>
        <time>2017-02-26T13:58:58Z</time>
      </trkpt>
      <trkpt lat="44.95014" lon="3.04013">
        <ele>937.42</ele>
        <time>2017-02-26T13:59:10Z</time>
      </trkpt>
      <trkpt lat="44.95016" lon="3.0403">
        <ele>936.94</ele>
        <time>2017-02-26T13:59:22Z</time>
      </trkpt>
      <trkpt lat="44.95027" lon="3.04058">
        <ele>935.98</ele>
        <time>2017-02-26T13:59:39Z</time>
      </trkpt>
      <trkpt lat="44.95028" lon="3.04063">
        <ele>935.5</ele>
        <time>2017-02-26T13:59:48Z</time>
      </trkpt>
      <trkpt lat="44.95032" lon="3.04071">
        <ele>935.02</ele>
        <time>2017-02-26T13:59:53Z</time>
      </trkpt>
      <trkpt lat="44.95041" lon="3.04098">
        <ele>933.1</ele>
        <time>2017-02-26T14:00:09Z</time>
      </trkpt>
      <trkpt lat="44.95043" lon="3.04123">
        <ele>931.65</ele>
        <time>2017-02-26T14:00:24Z</time>
      </trkpt>
      <trkpt lat="44.95047" lon="3.04138">
        <ele>931.65</ele>
        <time>2017-02-26T14:00:32Z</time>
      </trkpt>
      <trkpt lat="44.95047" lon="3.04143">
        <ele>931.65</ele>
        <time>2017-02-26T14:00:35Z</time>
      </trkpt>
      <trkpt lat="44.95051" lon="3.04154">
        <ele>931.65</ele>
        <time>2017-02-26T14:00:42Z</time>
      </trkpt>
      <trkpt lat="44.95063" lon="3.04183">
        <ele>933.58</ele>
        <time>2017-02-26T14:01:00Z</time>
      </trkpt>
      <trkpt lat="44.95072" lon="3.04205">
        <ele>933.58</ele>
        <time>2017-02-26T14:01:15Z</time>
      </trkpt>
      <trkpt lat="44.95084" lon="3.04212">
        <ele>934.54</ele>
        <time>2017-02-26T14:01:29Z</time>
      </trkpt>
      <trkpt lat="44.95093" lon="3.0421">
        <ele>934.54</ele>
        <time>2017-02-26T14:01:39Z</time>
      </trkpt>
      <trkpt lat="44.95099" lon="3.04224">
        <ele>935.5</ele>
        <time>2017-02-26T14:01:49Z</time>
      </trkpt>
      <trkpt lat="44.95101" lon="3.04228">
        <ele>935.98</ele>
        <time>2017-02-26T14:01:53Z</time>
      </trkpt>
      <trkpt lat="44.95113" lon="3.04229">
        <ele>936.94</ele>
        <time>2017-02-26T14:02:05Z</time>
      </trkpt>
      <trkpt lat="44.95128" lon="3.04241">
        <ele>935.5</ele>
        <time>2017-02-26T14:02:23Z</time>
      </trkpt>
      <trkpt lat="44.95132" lon="3.0425">
        <ele>934.54</ele>
        <time>2017-02-26T14:02:32Z</time>
      </trkpt>
      <trkpt lat="44.95138" lon="3.04258">
        <ele>933.1</ele>
        <time>2017-02-26T14:02:42Z</time>
      </trkpt>
      <trkpt lat="44.95139" lon="3.04258">
        <ele>933.1</ele>
        <time>2017-02-26T14:02:43Z</time>
      </trkpt>
      <trkpt lat="44.95147" lon="3.04263">
        <ele>931.17</ele>
        <time>2017-02-26T14:02:55Z</time>
      </trkpt>
      <trkpt lat="44.95158" lon="3.04266">
        <ele>927.81</ele>
        <time>2017-02-26T14:03:06Z</time>
      </trkpt>
      <trkpt lat="44.9517" lon="3.04268">
        <ele>924.93</ele>
        <time>2017-02-26T14:03:17Z</time>
      </trkpt>
      <trkpt lat="44.9518" lon="3.04265">
        <ele>923</ele>
        <time>2017-02-26T14:03:32Z</time>
      </trkpt>
      <trkpt lat="44.95184" lon="3.04264">
        <ele>921.56</ele>
        <time>2017-02-26T14:03:35Z</time>
      </trkpt>
      <trkpt lat="44.95201" lon="3.04251">
        <ele>919.16</ele>
        <time>2017-02-26T14:03:49Z</time>
      </trkpt>
      <trkpt lat="44.9521" lon="3.0424">
        <ele>916.27</ele>
        <time>2017-02-26T14:04:03Z</time>
      </trkpt>
      <trkpt lat="44.9521" lon="3.04239">
        <ele>915.79</ele>
        <time>2017-02-26T14:04:04Z</time>
      </trkpt>
      <trkpt lat="44.95211" lon="3.04226">
        <ele>913.39</ele>
        <time>2017-02-26T14:04:09Z</time>
      </trkpt>
      <trkpt lat="44.95209" lon="3.04209">
        <ele>911.95</ele>
        <time>2017-02-26T14:04:26Z</time>
      </trkpt>
      <trkpt lat="44.9521" lon="3.04193">
        <ele>910.51</ele>
        <time>2017-02-26T14:04:42Z</time>
      </trkpt>
      <trkpt lat="44.95207" lon="3.0418">
        <ele>907.14</ele>
        <time>2017-02-26T14:04:52Z</time>
      </trkpt>
      <trkpt lat="44.95204" lon="3.04162">
        <ele>904.74</ele>
        <time>2017-02-26T14:05:01Z</time>
      </trkpt>
      <trkpt lat="44.95205" lon="3.04156">
        <ele>903.78</ele>
        <time>2017-02-26T14:05:06Z</time>
      </trkpt>
      <trkpt lat="44.95209" lon="3.04154">
        <ele>901.37</ele>
        <time>2017-02-26T14:05:22Z</time>
      </trkpt>
      <trkpt lat="44.95212" lon="3.04155">
        <ele>900.41</ele>
        <time>2017-02-26T14:05:26Z</time>
      </trkpt>
      <trkpt lat="44.95215" lon="3.04156">
        <ele>899.93</ele>
        <time>2017-02-26T14:05:29Z</time>
      </trkpt>
      <trkpt lat="44.95229" lon="3.04165">
        <ele>897.53</ele>
        <time>2017-02-26T14:05:42Z</time>
      </trkpt>
      <trkpt lat="44.95242" lon="3.04176">
        <ele>895.12</ele>
        <time>2017-02-26T14:05:54Z</time>
      </trkpt>
      <trkpt lat="44.95249" lon="3.04184">
        <ele>892.24</ele>
        <time>2017-02-26T14:06:07Z</time>
      </trkpt>
      <trkpt lat="44.95251" lon="3.04186">
        <ele>891.76</ele>
        <time>2017-02-26T14:06:09Z</time>
      </trkpt>
      <trkpt lat="44.95259" lon="3.04199">
        <ele>891.76</ele>
        <time>2017-02-26T14:06:20Z</time>
      </trkpt>
      <trkpt lat="44.95259" lon="3.04204">
        <ele>891.76</ele>
        <time>2017-02-26T14:06:24Z</time>
      </trkpt>
      <trkpt lat="44.95261" lon="3.04227">
        <ele>893.2</ele>
        <time>2017-02-26T14:06:38Z</time>
      </trkpt>
      <trkpt lat="44.95283" lon="3.04225">
        <ele>893.2</ele>
        <time>2017-02-26T14:06:54Z</time>
      </trkpt>
      <trkpt lat="44.95288" lon="3.04225">
        <ele>893.2</ele>
        <time>2017-02-26T14:06:59Z</time>
      </trkpt>
      <trkpt lat="44.95295" lon="3.04221">
        <ele>894.64</ele>
        <time>2017-02-26T14:07:03Z</time>
      </trkpt>
      <trkpt lat="44.95308" lon="3.04209">
        <ele>896.57</ele>
        <time>2017-02-26T14:07:15Z</time>
      </trkpt>
      <trkpt lat="44.95316" lon="3.04197">
        <ele>898.49</ele>
        <time>2017-02-26T14:07:25Z</time>
      </trkpt>
      <trkpt lat="44.95328" lon="3.04193">
        <ele>899.93</ele>
        <time>2017-02-26T14:07:38Z</time>
      </trkpt>
      <trkpt lat="44.95338" lon="3.04189">
        <ele>901.85</ele>
        <time>2017-02-26T14:07:54Z</time>
      </trkpt>
      <trkpt lat="44.95348" lon="3.04184">
        <ele>902.82</ele>
        <time>2017-02-26T14:08:06Z</time>
      </trkpt>
      <trkpt lat="44.95354" lon="3.04181">
        <ele>904.26</ele>
        <time>2017-02-26T14:08:13Z</time>
      </trkpt>
      <trkpt lat="44.95355" lon="3.04182">
        <ele>904.74</ele>
        <time>2017-02-26T14:08:14Z</time>
      </trkpt>
      <trkpt lat="44.95367" lon="3.04181">
        <ele>907.14</ele>
        <time>2017-02-26T14:08:26Z</time>
      </trkpt>
      <trkpt lat="44.95378" lon="3.04177">
        <ele>909.54</ele>
        <time>2017-02-26T14:08:37Z</time>
      </trkpt>
      <trkpt lat="44.95385" lon="3.04175">
        <ele>909.54</ele>
        <time>2017-02-26T14:08:48Z</time>
      </trkpt>
      <trkpt lat="44.95398" lon="3.04171">
        <ele>910.51</ele>
        <time>2017-02-26T14:09:01Z</time>
      </trkpt>
      <trkpt lat="44.95402" lon="3.04169">
        <ele>910.99</ele>
        <time>2017-02-26T14:09:05Z</time>
      </trkpt>
      <trkpt lat="44.95407" lon="3.04158">
        <ele>912.91</ele>
        <time>2017-02-26T14:09:15Z</time>
      </trkpt>
      <trkpt lat="44.95407" lon="3.04155">
        <ele>912.91</ele>
        <time>2017-02-26T14:09:17Z</time>
      </trkpt>
      <trkpt lat="44.95416" lon="3.04155">
        <ele>913.87</ele>
        <time>2017-02-26T14:09:22Z</time>
      </trkpt>
      <trkpt lat="44.95433" lon="3.04157">
        <ele>916.75</ele>
        <time>2017-02-26T14:09:37Z</time>
      </trkpt>
      <trkpt lat="44.95441" lon="3.04155">
        <ele>918.68</ele>
        <time>2017-02-26T14:09:50Z</time>
      </trkpt>
      <trkpt lat="44.95444" lon="3.04154">
        <ele>919.16</ele>
        <time>2017-02-26T14:10:13Z</time>
      </trkpt>
      <trkpt lat="44.95449" lon="3.04155">
        <ele>922.52</ele>
        <time>2017-02-26T14:10:26Z</time>
      </trkpt>
      <trkpt lat="44.95462" lon="3.04165">
        <ele>924.45</ele>
        <time>2017-02-26T14:10:39Z</time>
      </trkpt>
      <trkpt lat="44.95469" lon="3.0417">
        <ele>926.37</ele>
        <time>2017-02-26T14:10:52Z</time>
      </trkpt>
      <trkpt lat="44.95472" lon="3.04172">
        <ele>926.85</ele>
        <time>2017-02-26T14:10:56Z</time>
      </trkpt>
      <trkpt lat="44.95477" lon="3.04184">
        <ele>930.21</ele>
        <time>2017-02-26T14:11:09Z</time>
      </trkpt>
      <trkpt lat="44.95477" lon="3.04185">
        <ele>930.69</ele>
        <time>2017-02-26T14:11:22Z</time>
      </trkpt>
      <trkpt lat="44.95475" lon="3.04185">
        <ele>930.69</ele>
        <time>2017-02-26T14:11:44Z</time>
      </trkpt>
      <trkpt lat="44.95476" lon="3.04187">
        <ele>930.69</ele>
        <time>2017-02-26T14:12:13Z</time>
      </trkpt>
      <trkpt lat="44.95483" lon="3.04188">
        <ele>930.69</ele>
        <time>2017-02-26T14:12:31Z</time>
      </trkpt>
      <trkpt lat="44.95495" lon="3.04205">
        <ele>934.06</ele>
        <time>2017-02-26T14:12:49Z</time>
      </trkpt>
      <trkpt lat="44.95504" lon="3.04213">
        <ele>935.5</ele>
        <time>2017-02-26T14:13:04Z</time>
      </trkpt>
      <trkpt lat="44.95519" lon="3.04224">
        <ele>938.38</ele>
        <time>2017-02-26T14:13:21Z</time>
      </trkpt>
      <trkpt lat="44.9552" lon="3.04224">
        <ele>938.38</ele>
        <time>2017-02-26T14:13:22Z</time>
      </trkpt>
      <trkpt lat="44.95533" lon="3.04231">
        <ele>940.79</ele>
        <time>2017-02-26T14:13:35Z</time>
      </trkpt>
      <trkpt lat="44.95546" lon="3.04237">
        <ele>943.67</ele>
        <time>2017-02-26T14:13:44Z</time>
      </trkpt>
      <trkpt lat="44.95551" lon="3.04239">
        <ele>945.11</ele>
        <time>2017-02-26T14:13:48Z</time>
      </trkpt>
      <trkpt lat="44.95559" lon="3.04239">
        <ele>946.56</ele>
        <time>2017-02-26T14:13:58Z</time>
      </trkpt>
      <trkpt lat="44.95564" lon="3.04243">
        <ele>947.52</ele>
        <time>2017-02-26T14:14:11Z</time>
      </trkpt>
      <trkpt lat="44.95562" lon="3.04245">
        <ele>948</ele>
        <time>2017-02-26T14:14:38Z</time>
      </trkpt>
      <trkpt lat="44.95564" lon="3.04247">
        <ele>948</ele>
        <time>2017-02-26T14:14:59Z</time>
      </trkpt>
      <trkpt lat="44.9557" lon="3.04263">
        <ele>948.48</ele>
        <time>2017-02-26T14:15:13Z</time>
      </trkpt>
      <trkpt lat="44.95572" lon="3.04284">
        <ele>949.92</ele>
        <time>2017-02-26T14:15:26Z</time>
      </trkpt>
      <trkpt lat="44.95572" lon="3.04292">
        <ele>950.4</ele>
        <time>2017-02-26T14:15:32Z</time>
      </trkpt>
      <trkpt lat="44.95582" lon="3.04308">
        <ele>951.84</ele>
        <time>2017-02-26T14:15:47Z</time>
      </trkpt>
      <trkpt lat="44.95591" lon="3.04321">
        <ele>952.32</ele>
        <time>2017-02-26T14:16:01Z</time>
      </trkpt>
      <trkpt lat="44.95604" lon="3.04332">
        <ele>953.77</ele>
        <time>2017-02-26T14:16:13Z</time>
      </trkpt>
      <trkpt lat="44.95617" lon="3.04344">
        <ele>955.21</ele>
        <time>2017-02-26T14:16:29Z</time>
      </trkpt>
      <trkpt lat="44.95624" lon="3.04351">
        <ele>956.65</ele>
        <time>2017-02-26T14:16:39Z</time>
      </trkpt>
      <trkpt lat="44.95632" lon="3.04359">
        <ele>958.57</ele>
        <time>2017-02-26T14:16:49Z</time>
      </trkpt>
      <trkpt lat="44.95643" lon="3.04372">
        <ele>960.49</ele>
        <time>2017-02-26T14:17:01Z</time>
      </trkpt>
      <trkpt lat="44.95654" lon="3.04382">
        <ele>961.94</ele>
        <time>2017-02-26T14:17:13Z</time>
      </trkpt>
      <trkpt lat="44.95667" lon="3.04395">
        <ele>963.86</ele>
        <time>2017-02-26T14:17:28Z</time>
      </trkpt>
      <trkpt lat="44.95674" lon="3.0439">
        <ele>965.78</ele>
        <time>2017-02-26T14:17:41Z</time>
      </trkpt>
      <trkpt lat="44.95679" lon="3.04376">
        <ele>966.74</ele>
        <time>2017-02-26T14:17:55Z</time>
      </trkpt>
      <trkpt lat="44.95686" lon="3.04358">
        <ele>968.18</ele>
        <time>2017-02-26T14:18:09Z</time>
      </trkpt>
      <trkpt lat="44.95693" lon="3.04345">
        <ele>969.15</ele>
        <time>2017-02-26T14:18:21Z</time>
      </trkpt>
      <trkpt lat="44.95696" lon="3.04331">
        <ele>971.55</ele>
        <time>2017-02-26T14:18:35Z</time>
      </trkpt>
      <trkpt lat="44.95704" lon="3.04325">
        <ele>972.03</ele>
        <time>2017-02-26T14:18:46Z</time>
      </trkpt>
      <trkpt lat="44.95714" lon="3.04333">
        <ele>973.47</ele>
        <time>2017-02-26T14:18:59Z</time>
      </trkpt>
      <trkpt lat="44.95715" lon="3.04348">
        <ele>974.43</ele>
        <time>2017-02-26T14:19:11Z</time>
      </trkpt>
      <trkpt lat="44.95712" lon="3.04361">
        <ele>975.39</ele>
        <time>2017-02-26T14:19:27Z</time>
      </trkpt>
      <trkpt lat="44.95711" lon="3.0436">
        <ele>975.39</ele>
        <time>2017-02-26T14:19:35Z</time>
      </trkpt>
      <trkpt lat="44.95712" lon="3.04391">
        <ele>977.32</ele>
        <time>2017-02-26T14:19:51Z</time>
      </trkpt>
      <trkpt lat="44.95717" lon="3.04424">
        <ele>977.32</ele>
        <time>2017-02-26T14:20:10Z</time>
      </trkpt>
      <trkpt lat="44.95724" lon="3.04449">
        <ele>977.8</ele>
        <time>2017-02-26T14:20:26Z</time>
      </trkpt>
      <trkpt lat="44.95731" lon="3.0447">
        <ele>978.28</ele>
        <time>2017-02-26T14:20:41Z</time>
      </trkpt>
      <trkpt lat="44.95735" lon="3.04477">
        <ele>978.76</ele>
        <time>2017-02-26T14:20:46Z</time>
      </trkpt>
      <trkpt lat="44.95746" lon="3.04503">
        <ele>980.68</ele>
        <time>2017-02-26T14:21:04Z</time>
      </trkpt>
      <trkpt lat="44.95759" lon="3.04524">
        <ele>981.64</ele>
        <time>2017-02-26T14:21:20Z</time>
      </trkpt>
      <trkpt lat="44.95773" lon="3.04548">
        <ele>982.12</ele>
        <time>2017-02-26T14:21:38Z</time>
      </trkpt>
      <trkpt lat="44.95786" lon="3.0457">
        <ele>982.6</ele>
        <time>2017-02-26T14:21:56Z</time>
      </trkpt>
      <trkpt lat="44.95797" lon="3.04589">
        <ele>983.09</ele>
        <time>2017-02-26T14:22:12Z</time>
      </trkpt>
      <trkpt lat="44.9581" lon="3.04611">
        <ele>983.57</ele>
        <time>2017-02-26T14:22:28Z</time>
      </trkpt>
      <trkpt lat="44.95824" lon="3.0463">
        <ele>984.53</ele>
        <time>2017-02-26T14:22:46Z</time>
      </trkpt>
      <trkpt lat="44.95837" lon="3.04648">
        <ele>985.49</ele>
        <time>2017-02-26T14:23:04Z</time>
      </trkpt>
      <trkpt lat="44.95839" lon="3.0465">
        <ele>985.49</ele>
        <time>2017-02-26T14:23:07Z</time>
      </trkpt>
      <trkpt lat="44.95857" lon="3.0467">
        <ele>985.97</ele>
        <time>2017-02-26T14:23:26Z</time>
      </trkpt>
      <trkpt lat="44.95876" lon="3.04686">
        <ele>988.37</ele>
        <time>2017-02-26T14:23:43Z</time>
      </trkpt>
      <trkpt lat="44.95895" lon="3.04706">
        <ele>987.41</ele>
        <time>2017-02-26T14:23:59Z</time>
      </trkpt>
      <trkpt lat="44.95907" lon="3.04728">
        <ele>986.93</ele>
        <time>2017-02-26T14:24:16Z</time>
      </trkpt>
      <trkpt lat="44.95915" lon="3.04751">
        <ele>988.37</ele>
        <time>2017-02-26T14:24:30Z</time>
      </trkpt>
      <trkpt lat="44.95926" lon="3.04774">
        <ele>988.37</ele>
        <time>2017-02-26T14:24:46Z</time>
      </trkpt>
      <trkpt lat="44.95938" lon="3.04797">
        <ele>986.93</ele>
        <time>2017-02-26T14:25:01Z</time>
      </trkpt>
      <trkpt lat="44.95954" lon="3.04826">
        <ele>986.45</ele>
        <time>2017-02-26T14:25:20Z</time>
      </trkpt>
      <trkpt lat="44.95956" lon="3.04829">
        <ele>986.45</ele>
        <time>2017-02-26T14:25:22Z</time>
      </trkpt>
      <trkpt lat="44.9596" lon="3.04835">
        <ele>986.45</ele>
        <time>2017-02-26T14:25:26Z</time>
      </trkpt>
      <trkpt lat="44.95978" lon="3.04855">
        <ele>986.45</ele>
        <time>2017-02-26T14:25:44Z</time>
      </trkpt>
      <trkpt lat="44.95997" lon="3.04875">
        <ele>985.97</ele>
        <time>2017-02-26T14:26:03Z</time>
      </trkpt>
      <trkpt lat="44.96015" lon="3.04896">
        <ele>985.01</ele>
        <time>2017-02-26T14:26:21Z</time>
      </trkpt>
      <trkpt lat="44.9603" lon="3.04923">
        <ele>982.6</ele>
        <time>2017-02-26T14:26:41Z</time>
      </trkpt>
      <trkpt lat="44.96038" lon="3.04949">
        <ele>980.68</ele>
        <time>2017-02-26T14:26:58Z</time>
      </trkpt>
      <trkpt lat="44.96039" lon="3.04954">
        <ele>980.68</ele>
        <time>2017-02-26T14:27:01Z</time>
      </trkpt>
      <trkpt lat="44.96045" lon="3.04981">
        <ele>978.76</ele>
        <time>2017-02-26T14:27:18Z</time>
      </trkpt>
      <trkpt lat="44.96048" lon="3.04993">
        <ele>977.8</ele>
        <time>2017-02-26T14:27:26Z</time>
      </trkpt>
      <trkpt lat="44.9605" lon="3.05001">
        <ele>977.8</ele>
        <time>2017-02-26T14:27:31Z</time>
      </trkpt>
      <trkpt lat="44.96051" lon="3.05006">
        <ele>977.32</ele>
        <time>2017-02-26T14:27:34Z</time>
      </trkpt>
      <trkpt lat="44.96056" lon="3.05029">
        <ele>975.88</ele>
        <time>2017-02-26T14:27:51Z</time>
      </trkpt>
      <trkpt lat="44.96059" lon="3.05061">
        <ele>973.95</ele>
        <time>2017-02-26T14:28:09Z</time>
      </trkpt>
      <trkpt lat="44.96056" lon="3.05087">
        <ele>971.55</ele>
        <time>2017-02-26T14:28:24Z</time>
      </trkpt>
      <trkpt lat="44.96054" lon="3.05121">
        <ele>970.59</ele>
        <time>2017-02-26T14:28:42Z</time>
      </trkpt>
      <trkpt lat="44.96057" lon="3.05154">
        <ele>969.15</ele>
        <time>2017-02-26T14:28:59Z</time>
      </trkpt>
      <trkpt lat="44.96059" lon="3.0518">
        <ele>968.18</ele>
        <time>2017-02-26T14:29:14Z</time>
      </trkpt>
      <trkpt lat="44.9607" lon="3.05208">
        <ele>968.18</ele>
        <time>2017-02-26T14:29:31Z</time>
      </trkpt>
      <trkpt lat="44.96079" lon="3.05207">
        <ele>968.18</ele>
        <time>2017-02-26T14:29:39Z</time>
      </trkpt>
      <trkpt lat="44.96083" lon="3.05203">
        <ele>969.63</ele>
        <time>2017-02-26T14:29:43Z</time>
      </trkpt>
      <trkpt lat="44.96089" lon="3.05199">
        <ele>970.11</ele>
        <time>2017-02-26T14:29:50Z</time>
      </trkpt>
      <trkpt lat="44.96102" lon="3.05188">
        <ele>971.55</ele>
        <time>2017-02-26T14:30:03Z</time>
      </trkpt>
      <trkpt lat="44.96114" lon="3.05178">
        <ele>972.99</ele>
        <time>2017-02-26T14:30:17Z</time>
      </trkpt>
      <trkpt lat="44.96115" lon="3.05173">
        <ele>973.47</ele>
        <time>2017-02-26T14:30:30Z</time>
      </trkpt>
      <trkpt lat="44.96112" lon="3.05173">
        <ele>973.47</ele>
        <time>2017-02-26T14:30:43Z</time>
      </trkpt>
      <trkpt lat="44.96114" lon="3.05172">
        <ele>973.47</ele>
        <time>2017-02-26T14:30:59Z</time>
      </trkpt>
      <trkpt lat="44.96113" lon="3.05168">
        <ele>973.47</ele>
        <time>2017-02-26T14:31:19Z</time>
      </trkpt>
      <trkpt lat="44.96117" lon="3.05165">
        <ele>973.47</ele>
        <time>2017-02-26T14:31:38Z</time>
      </trkpt>
      <trkpt lat="44.96128" lon="3.05163">
        <ele>974.43</ele>
        <time>2017-02-26T14:31:51Z</time>
      </trkpt>
      <trkpt lat="44.96145" lon="3.05159">
        <ele>976.84</ele>
        <time>2017-02-26T14:32:07Z</time>
      </trkpt>
      <trkpt lat="44.96158" lon="3.0515">
        <ele>978.28</ele>
        <time>2017-02-26T14:32:23Z</time>
      </trkpt>
      <trkpt lat="44.9617" lon="3.05141">
        <ele>979.72</ele>
        <time>2017-02-26T14:32:38Z</time>
      </trkpt>
      <trkpt lat="44.96186" lon="3.05135">
        <ele>981.64</ele>
        <time>2017-02-26T14:32:55Z</time>
      </trkpt>
      <trkpt lat="44.96201" lon="3.05131">
        <ele>983.57</ele>
        <time>2017-02-26T14:33:11Z</time>
      </trkpt>
      <trkpt lat="44.9622" lon="3.05126">
        <ele>985.97</ele>
        <time>2017-02-26T14:33:28Z</time>
      </trkpt>
      <trkpt lat="44.96235" lon="3.05125">
        <ele>987.89</ele>
        <time>2017-02-26T14:33:43Z</time>
      </trkpt>
      <trkpt lat="44.96241" lon="3.05121">
        <ele>988.37</ele>
        <time>2017-02-26T14:33:50Z</time>
      </trkpt>
      <trkpt lat="44.96243" lon="3.0512">
        <ele>989.33</ele>
        <time>2017-02-26T14:33:52Z</time>
      </trkpt>
      <trkpt lat="44.96259" lon="3.05114">
        <ele>990.78</ele>
        <time>2017-02-26T14:34:07Z</time>
      </trkpt>
      <trkpt lat="44.96275" lon="3.05107">
        <ele>992.22</ele>
        <time>2017-02-26T14:34:23Z</time>
      </trkpt>
      <trkpt lat="44.96293" lon="3.05095">
        <ele>992.7</ele>
        <time>2017-02-26T14:34:41Z</time>
      </trkpt>
      <trkpt lat="44.96306" lon="3.05078">
        <ele>994.14</ele>
        <time>2017-02-26T14:34:56Z</time>
      </trkpt>
      <trkpt lat="44.96322" lon="3.05056">
        <ele>996.06</ele>
        <time>2017-02-26T14:35:15Z</time>
      </trkpt>
      <trkpt lat="44.9633" lon="3.05044">
        <ele>996.54</ele>
        <time>2017-02-26T14:35:26Z</time>
      </trkpt>
      <trkpt lat="44.96347" lon="3.05044">
        <ele>997.51</ele>
        <time>2017-02-26T14:35:42Z</time>
      </trkpt>
      <trkpt lat="44.9636" lon="3.05047">
        <ele>997.51</ele>
        <time>2017-02-26T14:35:58Z</time>
      </trkpt>
      <trkpt lat="44.96368" lon="3.05049">
        <ele>997.99</ele>
        <time>2017-02-26T14:36:17Z</time>
      </trkpt>
      <trkpt lat="44.96385" lon="3.0505">
        <ele>997.99</ele>
        <time>2017-02-26T14:36:32Z</time>
      </trkpt>
      <trkpt lat="44.96405" lon="3.05053">
        <ele>998.95</ele>
        <time>2017-02-26T14:36:50Z</time>
      </trkpt>
      <trkpt lat="44.96415" lon="3.05056">
        <ele>999.43</ele>
        <time>2017-02-26T14:36:58Z</time>
      </trkpt>
      <trkpt lat="44.9643" lon="3.05057">
        <ele>999.43</ele>
        <time>2017-02-26T14:37:12Z</time>
      </trkpt>
      <trkpt lat="44.96439" lon="3.05058">
        <ele>999.43</ele>
        <time>2017-02-26T14:37:19Z</time>
      </trkpt>
      <trkpt lat="44.96445" lon="3.05059">
        <ele>999.91</ele>
        <time>2017-02-26T14:37:25Z</time>
      </trkpt>
      <trkpt lat="44.96462" lon="3.05059">
        <ele>1000.39</ele>
        <time>2017-02-26T14:37:39Z</time>
      </trkpt>
      <trkpt lat="44.9647" lon="3.0506">
        <ele>1000.87</ele>
        <time>2017-02-26T14:37:46Z</time>
      </trkpt>
      <trkpt lat="44.96488" lon="3.0506">
        <ele>1001.83</ele>
        <time>2017-02-26T14:38:00Z</time>
      </trkpt>
      <trkpt lat="44.96507" lon="3.05059">
        <ele>1002.31</ele>
        <time>2017-02-26T14:38:16Z</time>
      </trkpt>
      <trkpt lat="44.96529" lon="3.05059">
        <ele>1003.75</ele>
        <time>2017-02-26T14:38:34Z</time>
      </trkpt>
      <trkpt lat="44.9655" lon="3.05058">
        <ele>1004.23</ele>
        <time>2017-02-26T14:38:51Z</time>
      </trkpt>
      <trkpt lat="44.9657" lon="3.05055">
        <ele>1004.72</ele>
        <time>2017-02-26T14:39:08Z</time>
      </trkpt>
      <trkpt lat="44.96589" lon="3.05053">
        <ele>1005.2</ele>
        <time>2017-02-26T14:39:24Z</time>
      </trkpt>
      <trkpt lat="44.96597" lon="3.05052">
        <ele>1005.2</ele>
        <time>2017-02-26T14:39:31Z</time>
      </trkpt>
      <trkpt lat="44.96614" lon="3.0505">
        <ele>1005.2</ele>
        <time>2017-02-26T14:39:45Z</time>
      </trkpt>
      <trkpt lat="44.96631" lon="3.05048">
        <ele>1005.2</ele>
        <time>2017-02-26T14:39:59Z</time>
      </trkpt>
      <trkpt lat="44.9665" lon="3.05047">
        <ele>1005.2</ele>
        <time>2017-02-26T14:40:14Z</time>
      </trkpt>
      <trkpt lat="44.96671" lon="3.05044">
        <ele>1005.2</ele>
        <time>2017-02-26T14:40:30Z</time>
      </trkpt>
      <trkpt lat="44.96687" lon="3.05031">
        <ele>1005.2</ele>
        <time>2017-02-26T14:40:46Z</time>
      </trkpt>
      <trkpt lat="44.96692" lon="3.05002">
        <ele>1003.75</ele>
        <time>2017-02-26T14:41:02Z</time>
      </trkpt>
      <trkpt lat="44.96694" lon="3.04991">
        <ele>1005.2</ele>
        <time>2017-02-26T14:41:08Z</time>
      </trkpt>
      <trkpt lat="44.96697" lon="3.0498">
        <ele>1005.2</ele>
        <time>2017-02-26T14:41:15Z</time>
      </trkpt>
      <trkpt lat="44.96703" lon="3.04957">
        <ele>1005.2</ele>
        <time>2017-02-26T14:41:29Z</time>
      </trkpt>
      <trkpt lat="44.96709" lon="3.04931">
        <ele>1005.68</ele>
        <time>2017-02-26T14:41:46Z</time>
      </trkpt>
      <trkpt lat="44.96716" lon="3.04906">
        <ele>1005.68</ele>
        <time>2017-02-26T14:42:01Z</time>
      </trkpt>
      <trkpt lat="44.96721" lon="3.04882">
        <ele>1005.2</ele>
        <time>2017-02-26T14:42:16Z</time>
      </trkpt>
      <trkpt lat="44.96722" lon="3.0488">
        <ele>1005.2</ele>
        <time>2017-02-26T14:42:17Z</time>
      </trkpt>
      <trkpt lat="44.96726" lon="3.04867">
        <ele>1005.68</ele>
        <time>2017-02-26T14:42:26Z</time>
      </trkpt>
      <trkpt lat="44.96732" lon="3.04844">
        <ele>1005.68</ele>
        <time>2017-02-26T14:42:39Z</time>
      </trkpt>
      <trkpt lat="44.96737" lon="3.04825">
        <ele>1005.68</ele>
        <time>2017-02-26T14:42:52Z</time>
      </trkpt>
      <trkpt lat="44.96746" lon="3.04803">
        <ele>1005.68</ele>
        <time>2017-02-26T14:43:09Z</time>
      </trkpt>
      <trkpt lat="44.96746" lon="3.04801">
        <ele>1005.68</ele>
        <time>2017-02-26T14:43:11Z</time>
      </trkpt>
      <trkpt lat="44.96749" lon="3.04794">
        <ele>1005.68</ele>
        <time>2017-02-26T14:43:17Z</time>
      </trkpt>
      <trkpt lat="44.96752" lon="3.04788">
        <ele>1005.68</ele>
        <time>2017-02-26T14:43:21Z</time>
      </trkpt>
      <trkpt lat="44.96755" lon="3.04781">
        <ele>1005.68</ele>
        <time>2017-02-26T14:43:26Z</time>
      </trkpt>
      <trkpt lat="44.96763" lon="3.04756">
        <ele>1005.68</ele>
        <time>2017-02-26T14:43:42Z</time>
      </trkpt>
      <trkpt lat="44.96772" lon="3.04731">
        <ele>1004.23</ele>
        <time>2017-02-26T14:43:57Z</time>
      </trkpt>
      <trkpt lat="44.96779" lon="3.04705">
        <ele>1005.2</ele>
        <time>2017-02-26T14:44:13Z</time>
      </trkpt>
      <trkpt lat="44.96789" lon="3.04684">
        <ele>1005.68</ele>
        <time>2017-02-26T14:44:28Z</time>
      </trkpt>
      <trkpt lat="44.96803" lon="3.04667">
        <ele>1005.2</ele>
        <time>2017-02-26T14:44:43Z</time>
      </trkpt>
      <trkpt lat="44.96809" lon="3.04654">
        <ele>1005.2</ele>
        <time>2017-02-26T14:44:52Z</time>
      </trkpt>
      <trkpt lat="44.96813" lon="3.04637">
        <ele>1003.75</ele>
        <time>2017-02-26T14:45:02Z</time>
      </trkpt>
      <trkpt lat="44.96819" lon="3.04617">
        <ele>1003.75</ele>
        <time>2017-02-26T14:45:15Z</time>
      </trkpt>
      <trkpt lat="44.96825" lon="3.04594">
        <ele>1005.2</ele>
        <time>2017-02-26T14:45:29Z</time>
      </trkpt>
      <trkpt lat="44.96831" lon="3.04568">
        <ele>1005.2</ele>
        <time>2017-02-26T14:45:44Z</time>
      </trkpt>
      <trkpt lat="44.96837" lon="3.04549">
        <ele>1005.2</ele>
        <time>2017-02-26T14:45:56Z</time>
      </trkpt>
      <trkpt lat="44.96842" lon="3.04534">
        <ele>1005.2</ele>
        <time>2017-02-26T14:46:05Z</time>
      </trkpt>
      <trkpt lat="44.96844" lon="3.04527">
        <ele>1005.2</ele>
        <time>2017-02-26T14:46:10Z</time>
      </trkpt>
      <trkpt lat="44.96851" lon="3.04505">
        <ele>1004.72</ele>
        <time>2017-02-26T14:46:24Z</time>
      </trkpt>
      <trkpt lat="44.96858" lon="3.04482">
        <ele>1005.2</ele>
        <time>2017-02-26T14:46:37Z</time>
      </trkpt>
      <trkpt lat="44.96866" lon="3.04458">
        <ele>1005.68</ele>
        <time>2017-02-26T14:46:51Z</time>
      </trkpt>
      <trkpt lat="44.96876" lon="3.04435">
        <ele>1006.16</ele>
        <time>2017-02-26T14:47:08Z</time>
      </trkpt>
      <trkpt lat="44.96885" lon="3.04414">
        <ele>1006.16</ele>
        <time>2017-02-26T14:47:22Z</time>
      </trkpt>
      <trkpt lat="44.96887" lon="3.04411">
        <ele>1006.16</ele>
        <time>2017-02-26T14:47:24Z</time>
      </trkpt>
      <trkpt lat="44.96891" lon="3.04412">
        <ele>1006.64</ele>
        <time>2017-02-26T14:47:28Z</time>
      </trkpt>
      <trkpt lat="44.96894" lon="3.04415">
        <ele>1006.64</ele>
        <time>2017-02-26T14:47:32Z</time>
      </trkpt>
      <trkpt lat="44.96899" lon="3.04444">
        <ele>1006.64</ele>
        <time>2017-02-26T14:47:50Z</time>
      </trkpt>
      <trkpt lat="44.96903" lon="3.04469">
        <ele>1004.72</ele>
        <time>2017-02-26T14:48:05Z</time>
      </trkpt>
      <trkpt lat="44.96904" lon="3.04473">
        <ele>1004.72</ele>
        <time>2017-02-26T14:48:07Z</time>
      </trkpt>
      <trkpt lat="44.96906" lon="3.04483">
        <ele>1004.72</ele>
        <time>2017-02-26T14:48:13Z</time>
      </trkpt>
      <trkpt lat="44.96909" lon="3.04489">
        <ele>1004.23</ele>
        <time>2017-02-26T14:48:17Z</time>
      </trkpt>
      <trkpt lat="44.96919" lon="3.04509">
        <ele>1003.27</ele>
        <time>2017-02-26T14:48:33Z</time>
      </trkpt>
      <trkpt lat="44.96923" lon="3.04525">
        <ele>1003.27</ele>
        <time>2017-02-26T14:48:44Z</time>
      </trkpt>
      <trkpt lat="44.96917" lon="3.04551">
        <ele>1001.35</ele>
        <time>2017-02-26T14:49:01Z</time>
      </trkpt>
      <trkpt lat="44.96917" lon="3.04565">
        <ele>1000.87</ele>
        <time>2017-02-26T14:49:09Z</time>
      </trkpt>
      <trkpt lat="44.96918" lon="3.0459">
        <ele>999.91</ele>
        <time>2017-02-26T14:49:25Z</time>
      </trkpt>
      <trkpt lat="44.96919" lon="3.04603">
        <ele>997.99</ele>
        <time>2017-02-26T14:49:33Z</time>
      </trkpt>
      <trkpt lat="44.96922" lon="3.04621">
        <ele>997.02</ele>
        <time>2017-02-26T14:49:45Z</time>
      </trkpt>
      <trkpt lat="44.96926" lon="3.04635">
        <ele>996.06</ele>
        <time>2017-02-26T14:49:58Z</time>
      </trkpt>
      <trkpt lat="44.96928" lon="3.04638">
        <ele>996.06</ele>
        <time>2017-02-26T14:50:02Z</time>
      </trkpt>
      <trkpt lat="44.96936" lon="3.04649">
        <ele>993.18</ele>
        <time>2017-02-26T14:50:14Z</time>
      </trkpt>
      <trkpt lat="44.96942" lon="3.04653">
        <ele>991.74</ele>
        <time>2017-02-26T14:50:29Z</time>
      </trkpt>
      <trkpt lat="44.96942" lon="3.04654">
        <ele>991.26</ele>
        <time>2017-02-26T14:50:36Z</time>
      </trkpt>
      <trkpt lat="44.96944" lon="3.04656">
        <ele>989.81</ele>
        <time>2017-02-26T14:50:39Z</time>
      </trkpt>
      <trkpt lat="44.96952" lon="3.04664">
        <ele>986.93</ele>
        <time>2017-02-26T14:50:52Z</time>
      </trkpt>
      <trkpt lat="44.96957" lon="3.04679">
        <ele>985.01</ele>
        <time>2017-02-26T14:51:07Z</time>
      </trkpt>
      <trkpt lat="44.96961" lon="3.04683">
        <ele>984.05</ele>
        <time>2017-02-26T14:51:13Z</time>
      </trkpt>
      <trkpt lat="44.96968" lon="3.04695">
        <ele>982.12</ele>
        <time>2017-02-26T14:51:26Z</time>
      </trkpt>
      <trkpt lat="44.96972" lon="3.04701">
        <ele>981.16</ele>
        <time>2017-02-26T14:51:32Z</time>
      </trkpt>
      <trkpt lat="44.96974" lon="3.04705">
        <ele>980.68</ele>
        <time>2017-02-26T14:51:35Z</time>
      </trkpt>
      <trkpt lat="44.96976" lon="3.04709">
        <ele>979.72</ele>
        <time>2017-02-26T14:51:38Z</time>
      </trkpt>
      <trkpt lat="44.96979" lon="3.04712">
        <ele>979.24</ele>
        <time>2017-02-26T14:51:41Z</time>
      </trkpt>
      <trkpt lat="44.96993" lon="3.04731">
        <ele>976.36</ele>
        <time>2017-02-26T14:51:55Z</time>
      </trkpt>
      <trkpt lat="44.96995" lon="3.04734">
        <ele>975.39</ele>
        <time>2017-02-26T14:51:57Z</time>
      </trkpt>
      <trkpt lat="44.97" lon="3.04738">
        <ele>974.91</ele>
        <time>2017-02-26T14:52:06Z</time>
      </trkpt>
      <trkpt lat="44.97006" lon="3.04749">
        <ele>972.99</ele>
        <time>2017-02-26T14:52:13Z</time>
      </trkpt>
      <trkpt lat="44.97013" lon="3.04754">
        <ele>971.55</ele>
        <time>2017-02-26T14:52:26Z</time>
      </trkpt>
      <trkpt lat="44.97014" lon="3.04754">
        <ele>971.55</ele>
        <time>2017-02-26T14:52:27Z</time>
      </trkpt>
      <trkpt lat="44.97017" lon="3.04755">
        <ele>970.11</ele>
        <time>2017-02-26T14:52:31Z</time>
      </trkpt>
      <trkpt lat="44.97026" lon="3.04766">
        <ele>967.7</ele>
        <time>2017-02-26T14:52:44Z</time>
      </trkpt>
      <trkpt lat="44.97038" lon="3.04773">
        <ele>964.82</ele>
        <time>2017-02-26T14:52:58Z</time>
      </trkpt>
      <trkpt lat="44.97041" lon="3.04774">
        <ele>964.34</ele>
        <time>2017-02-26T14:53:01Z</time>
      </trkpt>
      <trkpt lat="44.97047" lon="3.04779">
        <ele>963.38</ele>
        <time>2017-02-26T14:53:07Z</time>
      </trkpt>
      <trkpt lat="44.97057" lon="3.04779">
        <ele>961.94</ele>
        <time>2017-02-26T14:53:20Z</time>
      </trkpt>
      <trkpt lat="44.97068" lon="3.04772">
        <ele>961.46</ele>
        <time>2017-02-26T14:53:33Z</time>
      </trkpt>
      <trkpt lat="44.97069" lon="3.0477">
        <ele>961.46</ele>
        <time>2017-02-26T14:53:35Z</time>
      </trkpt>
      <trkpt lat="44.9708" lon="3.04764">
        <ele>961.46</ele>
        <time>2017-02-26T14:53:48Z</time>
      </trkpt>
      <trkpt lat="44.9708" lon="3.04763">
        <ele>961.46</ele>
        <time>2017-02-26T14:53:49Z</time>
      </trkpt>
      <trkpt lat="44.97084" lon="3.0476">
        <ele>961.46</ele>
        <time>2017-02-26T14:53:52Z</time>
      </trkpt>
      <trkpt lat="44.97097" lon="3.04748">
        <ele>962.42</ele>
        <time>2017-02-26T14:54:08Z</time>
      </trkpt>
      <trkpt lat="44.97112" lon="3.04739">
        <ele>962.42</ele>
        <time>2017-02-26T14:54:21Z</time>
      </trkpt>
      <trkpt lat="44.97126" lon="3.04732">
        <ele>962.9</ele>
        <time>2017-02-26T14:54:31Z</time>
      </trkpt>
      <trkpt lat="44.9713" lon="3.04731">
        <ele>963.38</ele>
        <time>2017-02-26T14:54:35Z</time>
      </trkpt>
      <trkpt lat="44.97143" lon="3.04729">
        <ele>963.86</ele>
        <time>2017-02-26T14:54:48Z</time>
      </trkpt>
      <trkpt lat="44.97153" lon="3.04731">
        <ele>964.34</ele>
        <time>2017-02-26T14:54:55Z</time>
      </trkpt>
      <trkpt lat="44.97161" lon="3.04731">
        <ele>964.82</ele>
        <time>2017-02-26T14:55:01Z</time>
      </trkpt>
      <trkpt lat="44.97177" lon="3.04731">
        <ele>965.3</ele>
        <time>2017-02-26T14:55:15Z</time>
      </trkpt>
      <trkpt lat="44.9719" lon="3.04737">
        <ele>967.22</ele>
        <time>2017-02-26T14:55:29Z</time>
      </trkpt>
      <trkpt lat="44.97202" lon="3.0474">
        <ele>969.15</ele>
        <time>2017-02-26T14:55:41Z</time>
      </trkpt>
      <trkpt lat="44.97217" lon="3.04743">
        <ele>971.07</ele>
        <time>2017-02-26T14:55:55Z</time>
      </trkpt>
      <trkpt lat="44.97228" lon="3.04749">
        <ele>972.51</ele>
        <time>2017-02-26T14:56:08Z</time>
      </trkpt>
      <trkpt lat="44.9724" lon="3.04752">
        <ele>974.91</ele>
        <time>2017-02-26T14:56:20Z</time>
      </trkpt>
      <trkpt lat="44.97252" lon="3.0475">
        <ele>976.36</ele>
        <time>2017-02-26T14:56:32Z</time>
      </trkpt>
      <trkpt lat="44.97262" lon="3.04746">
        <ele>978.28</ele>
        <time>2017-02-26T14:56:44Z</time>
      </trkpt>
      <trkpt lat="44.97276" lon="3.04744">
        <ele>980.2</ele>
        <time>2017-02-26T14:56:58Z</time>
      </trkpt>
      <trkpt lat="44.97292" lon="3.04737">
        <ele>981.16</ele>
        <time>2017-02-26T14:57:15Z</time>
      </trkpt>
      <trkpt lat="44.97303" lon="3.04725">
        <ele>981.16</ele>
        <time>2017-02-26T14:57:29Z</time>
      </trkpt>
      <trkpt lat="44.97314" lon="3.04708">
        <ele>981.16</ele>
        <time>2017-02-26T14:57:44Z</time>
      </trkpt>
      <trkpt lat="44.97321" lon="3.04686">
        <ele>981.16</ele>
        <time>2017-02-26T14:57:59Z</time>
      </trkpt>
      <trkpt lat="44.97321" lon="3.04681">
        <ele>981.16</ele>
        <time>2017-02-26T14:58:02Z</time>
      </trkpt>
      <trkpt lat="44.97327" lon="3.04661">
        <ele>981.64</ele>
        <time>2017-02-26T14:58:15Z</time>
      </trkpt>
      <trkpt lat="44.97334" lon="3.04639">
        <ele>982.6</ele>
        <time>2017-02-26T14:58:30Z</time>
      </trkpt>
      <trkpt lat="44.97339" lon="3.0462">
        <ele>982.6</ele>
        <time>2017-02-26T14:58:41Z</time>
      </trkpt>
      <trkpt lat="44.97344" lon="3.04613">
        <ele>981.16</ele>
        <time>2017-02-26T14:58:48Z</time>
      </trkpt>
      <trkpt lat="44.97353" lon="3.04598">
        <ele>979.24</ele>
        <time>2017-02-26T14:59:01Z</time>
      </trkpt>
      <trkpt lat="44.97356" lon="3.04572">
        <ele>978.28</ele>
        <time>2017-02-26T14:59:14Z</time>
      </trkpt>
      <trkpt lat="44.97364" lon="3.04545">
        <ele>976.84</ele>
        <time>2017-02-26T14:59:28Z</time>
      </trkpt>
      <trkpt lat="44.97369" lon="3.0452">
        <ele>976.84</ele>
        <time>2017-02-26T14:59:43Z</time>
      </trkpt>
      <trkpt lat="44.97372" lon="3.04509">
        <ele>975.88</ele>
        <time>2017-02-26T14:59:51Z</time>
      </trkpt>
      <trkpt lat="44.97373" lon="3.045">
        <ele>975.88</ele>
        <time>2017-02-26T14:59:57Z</time>
      </trkpt>
      <trkpt lat="44.97376" lon="3.04493">
        <ele>975.88</ele>
        <time>2017-02-26T15:00:03Z</time>
      </trkpt>
      <trkpt lat="44.97382" lon="3.04472">
        <ele>975.88</ele>
        <time>2017-02-26T15:00:16Z</time>
      </trkpt>
      <trkpt lat="44.9739" lon="3.04454">
        <ele>976.84</ele>
        <time>2017-02-26T15:00:28Z</time>
      </trkpt>
      <trkpt lat="44.974" lon="3.04434">
        <ele>973.47</ele>
        <time>2017-02-26T15:00:42Z</time>
      </trkpt>
      <trkpt lat="44.97406" lon="3.04424">
        <ele>972.03</ele>
        <time>2017-02-26T15:00:49Z</time>
      </trkpt>
      <trkpt lat="44.97421" lon="3.04411">
        <ele>970.11</ele>
        <time>2017-02-26T15:01:03Z</time>
      </trkpt>
      <trkpt lat="44.97425" lon="3.04409">
        <ele>969.63</ele>
        <time>2017-02-26T15:01:07Z</time>
      </trkpt>
      <trkpt lat="44.97432" lon="3.04399">
        <ele>968.18</ele>
        <time>2017-02-26T15:01:14Z</time>
      </trkpt>
      <trkpt lat="44.97445" lon="3.04383">
        <ele>967.7</ele>
        <time>2017-02-26T15:01:28Z</time>
      </trkpt>
      <trkpt lat="44.97447" lon="3.04379">
        <ele>967.7</ele>
        <time>2017-02-26T15:01:31Z</time>
      </trkpt>
      <trkpt lat="44.97449" lon="3.04368">
        <ele>967.7</ele>
        <time>2017-02-26T15:01:37Z</time>
      </trkpt>
      <trkpt lat="44.97449" lon="3.04358">
        <ele>967.7</ele>
        <time>2017-02-26T15:01:43Z</time>
      </trkpt>
      <trkpt lat="44.97451" lon="3.04346">
        <ele>967.7</ele>
        <time>2017-02-26T15:01:49Z</time>
      </trkpt>
      <trkpt lat="44.97455" lon="3.04316">
        <ele>969.15</ele>
        <time>2017-02-26T15:02:05Z</time>
      </trkpt>
      <trkpt lat="44.97457" lon="3.04312">
        <ele>969.15</ele>
        <time>2017-02-26T15:02:08Z</time>
      </trkpt>
      <trkpt lat="44.97463" lon="3.04276">
        <ele>969.15</ele>
        <time>2017-02-26T15:02:29Z</time>
      </trkpt>
      <trkpt lat="44.97464" lon="3.04271">
        <ele>969.15</ele>
        <time>2017-02-26T15:02:33Z</time>
      </trkpt>
      <trkpt lat="44.97466" lon="3.04235">
        <ele>969.63</ele>
        <time>2017-02-26T15:02:51Z</time>
      </trkpt>
      <trkpt lat="44.97468" lon="3.0421">
        <ele>969.63</ele>
        <time>2017-02-26T15:03:05Z</time>
      </trkpt>
      <trkpt lat="44.97469" lon="3.04204">
        <ele>969.63</ele>
        <time>2017-02-26T15:03:09Z</time>
      </trkpt>
      <trkpt lat="44.9747" lon="3.04197">
        <ele>969.63</ele>
        <time>2017-02-26T15:03:13Z</time>
      </trkpt>
      <trkpt lat="44.97478" lon="3.04179">
        <ele>968.67</ele>
        <time>2017-02-26T15:03:26Z</time>
      </trkpt>
      <trkpt lat="44.9748" lon="3.04174">
        <ele>968.18</ele>
        <time>2017-02-26T15:03:30Z</time>
      </trkpt>
      <trkpt lat="44.97484" lon="3.0417">
        <ele>968.18</ele>
        <time>2017-02-26T15:03:34Z</time>
      </trkpt>
      <trkpt lat="44.97489" lon="3.04164">
        <ele>967.7</ele>
        <time>2017-02-26T15:03:39Z</time>
      </trkpt>
      <trkpt lat="44.97499" lon="3.04158">
        <ele>965.78</ele>
        <time>2017-02-26T15:03:48Z</time>
      </trkpt>
      <trkpt lat="44.97512" lon="3.04141">
        <ele>964.34</ele>
        <time>2017-02-26T15:04:05Z</time>
      </trkpt>
      <trkpt lat="44.97514" lon="3.04139">
        <ele>964.34</ele>
        <time>2017-02-26T15:04:23Z</time>
      </trkpt>
      <trkpt lat="44.97515" lon="3.04138">
        <ele>964.34</ele>
        <time>2017-02-26T15:04:42Z</time>
      </trkpt>
      <trkpt lat="44.97514" lon="3.04135">
        <ele>964.34</ele>
        <time>2017-02-26T15:04:52Z</time>
      </trkpt>
      <trkpt lat="44.97516" lon="3.04134">
        <ele>964.34</ele>
        <time>2017-02-26T15:04:54Z</time>
      </trkpt>
      <trkpt lat="44.97532" lon="3.04128">
        <ele>965.78</ele>
        <time>2017-02-26T15:05:08Z</time>
      </trkpt>
      <trkpt lat="44.97534" lon="3.04127">
        <ele>965.78</ele>
        <time>2017-02-26T15:05:10Z</time>
      </trkpt>
      <trkpt lat="44.97536" lon="3.04126">
        <ele>966.26</ele>
        <time>2017-02-26T15:05:12Z</time>
      </trkpt>
      <trkpt lat="44.97552" lon="3.04126">
        <ele>968.18</ele>
        <time>2017-02-26T15:05:27Z</time>
      </trkpt>
      <trkpt lat="44.97564" lon="3.04139">
        <ele>968.67</ele>
        <time>2017-02-26T15:05:40Z</time>
      </trkpt>
      <trkpt lat="44.97567" lon="3.04143">
        <ele>969.15</ele>
        <time>2017-02-26T15:05:43Z</time>
      </trkpt>
      <trkpt lat="44.97572" lon="3.04148">
        <ele>969.15</ele>
        <time>2017-02-26T15:05:48Z</time>
      </trkpt>
      <trkpt lat="44.97589" lon="3.04162">
        <ele>969.15</ele>
        <time>2017-02-26T15:06:05Z</time>
      </trkpt>
      <trkpt lat="44.97602" lon="3.0417">
        <ele>969.15</ele>
        <time>2017-02-26T15:06:18Z</time>
      </trkpt>
      <trkpt lat="44.9761" lon="3.04176">
        <ele>968.18</ele>
        <time>2017-02-26T15:06:28Z</time>
      </trkpt>
      <trkpt lat="44.97621" lon="3.0418">
        <ele>967.22</ele>
        <time>2017-02-26T15:06:40Z</time>
      </trkpt>
      <trkpt lat="44.97636" lon="3.04187">
        <ele>965.78</ele>
        <time>2017-02-26T15:06:51Z</time>
      </trkpt>
      <trkpt lat="44.97649" lon="3.04187">
        <ele>964.82</ele>
        <time>2017-02-26T15:07:04Z</time>
      </trkpt>
      <trkpt lat="44.97662" lon="3.04179">
        <ele>963.86</ele>
        <time>2017-02-26T15:07:18Z</time>
      </trkpt>
      <trkpt lat="44.97676" lon="3.04172">
        <ele>965.3</ele>
        <time>2017-02-26T15:07:31Z</time>
      </trkpt>
      <trkpt lat="44.97682" lon="3.04168">
        <ele>965.78</ele>
        <time>2017-02-26T15:07:37Z</time>
      </trkpt>
      <trkpt lat="44.97687" lon="3.04165">
        <ele>966.26</ele>
        <time>2017-02-26T15:07:42Z</time>
      </trkpt>
      <trkpt lat="44.97701" lon="3.04158">
        <ele>967.22</ele>
        <time>2017-02-26T15:07:55Z</time>
      </trkpt>
      <trkpt lat="44.97714" lon="3.04151">
        <ele>967.7</ele>
        <time>2017-02-26T15:08:08Z</time>
      </trkpt>
      <trkpt lat="44.97724" lon="3.04154">
        <ele>966.26</ele>
        <time>2017-02-26T15:08:19Z</time>
      </trkpt>
      <trkpt lat="44.97739" lon="3.04152">
        <ele>965.3</ele>
        <time>2017-02-26T15:08:31Z</time>
      </trkpt>
      <trkpt lat="44.97744" lon="3.0415">
        <ele>964.34</ele>
        <time>2017-02-26T15:08:39Z</time>
      </trkpt>
      <trkpt lat="44.97748" lon="3.04148">
        <ele>963.86</ele>
        <time>2017-02-26T15:08:42Z</time>
      </trkpt>
      <trkpt lat="44.97758" lon="3.04141">
        <ele>962.42</ele>
        <time>2017-02-26T15:08:52Z</time>
      </trkpt>
      <trkpt lat="44.97769" lon="3.04131">
        <ele>962.42</ele>
        <time>2017-02-26T15:09:02Z</time>
      </trkpt>
      <trkpt lat="44.97775" lon="3.04125">
        <ele>961.94</ele>
        <time>2017-02-26T15:09:07Z</time>
      </trkpt>
      <trkpt lat="44.97787" lon="3.04113">
        <ele>960.98</ele>
        <time>2017-02-26T15:09:19Z</time>
      </trkpt>
      <trkpt lat="44.9779" lon="3.04111">
        <ele>960.49</ele>
        <time>2017-02-26T15:09:23Z</time>
      </trkpt>
      <trkpt lat="44.97807" lon="3.04108">
        <ele>960.01</ele>
        <time>2017-02-26T15:09:35Z</time>
      </trkpt>
      <trkpt lat="44.97817" lon="3.04106">
        <ele>959.05</ele>
        <time>2017-02-26T15:09:45Z</time>
      </trkpt>
      <trkpt lat="44.97828" lon="3.04104">
        <ele>958.57</ele>
        <time>2017-02-26T15:09:52Z</time>
      </trkpt>
      <trkpt lat="44.97838" lon="3.04101">
        <ele>958.09</ele>
        <time>2017-02-26T15:09:58Z</time>
      </trkpt>
      <trkpt lat="44.97841" lon="3.041">
        <ele>957.61</ele>
        <time>2017-02-26T15:10:01Z</time>
      </trkpt>
      <trkpt lat="44.97852" lon="3.04094">
        <ele>956.17</ele>
        <time>2017-02-26T15:10:11Z</time>
      </trkpt>
      <trkpt lat="44.97863" lon="3.04084">
        <ele>955.21</ele>
        <time>2017-02-26T15:10:22Z</time>
      </trkpt>
      <trkpt lat="44.97871" lon="3.04078">
        <ele>956.65</ele>
        <time>2017-02-26T15:10:29Z</time>
      </trkpt>
      <trkpt lat="44.97875" lon="3.04075">
        <ele>957.13</ele>
        <time>2017-02-26T15:10:33Z</time>
      </trkpt>
      <trkpt lat="44.97892" lon="3.04055">
        <ele>959.05</ele>
        <time>2017-02-26T15:10:48Z</time>
      </trkpt>
      <trkpt lat="44.97896" lon="3.04047">
        <ele>959.53</ele>
        <time>2017-02-26T15:10:54Z</time>
      </trkpt>
      <trkpt lat="44.97905" lon="3.04029">
        <ele>961.94</ele>
        <time>2017-02-26T15:11:04Z</time>
      </trkpt>
      <trkpt lat="44.97903" lon="3.04008">
        <ele>963.86</ele>
        <time>2017-02-26T15:11:15Z</time>
      </trkpt>
      <trkpt lat="44.97901" lon="3.03997">
        <ele>964.82</ele>
        <time>2017-02-26T15:11:20Z</time>
      </trkpt>
      <trkpt lat="44.97892" lon="3.03977">
        <ele>967.22</ele>
        <time>2017-02-26T15:11:33Z</time>
      </trkpt>
      <trkpt lat="44.9789" lon="3.03974">
        <ele>967.7</ele>
        <time>2017-02-26T15:11:46Z</time>
      </trkpt>
      <trkpt lat="44.97893" lon="3.0397">
        <ele>967.7</ele>
        <time>2017-02-26T15:11:51Z</time>
      </trkpt>
      <trkpt lat="44.97905" lon="3.03962">
        <ele>966.26</ele>
        <time>2017-02-26T15:12:03Z</time>
      </trkpt>
      <trkpt lat="44.97922" lon="3.0395">
        <ele>963.86</ele>
        <time>2017-02-26T15:12:19Z</time>
      </trkpt>
      <trkpt lat="44.97926" lon="3.0394">
        <ele>963.38</ele>
        <time>2017-02-26T15:12:25Z</time>
      </trkpt>
      <trkpt lat="44.97927" lon="3.03937">
        <ele>963.38</ele>
        <time>2017-02-26T15:12:27Z</time>
      </trkpt>
      <trkpt lat="44.97929" lon="3.03934">
        <ele>963.38</ele>
        <time>2017-02-26T15:12:29Z</time>
      </trkpt>
      <trkpt lat="44.97934" lon="3.03926">
        <ele>963.86</ele>
        <time>2017-02-26T15:12:35Z</time>
      </trkpt>
      <trkpt lat="44.97936" lon="3.03923">
        <ele>964.82</ele>
        <time>2017-02-26T15:12:38Z</time>
      </trkpt>
      <trkpt lat="44.97945" lon="3.03911">
        <ele>965.3</ele>
        <time>2017-02-26T15:12:47Z</time>
      </trkpt>
      <trkpt lat="44.9796" lon="3.03893">
        <ele>965.78</ele>
        <time>2017-02-26T15:13:02Z</time>
      </trkpt>
      <trkpt lat="44.97968" lon="3.03884">
        <ele>966.26</ele>
        <time>2017-02-26T15:13:14Z</time>
      </trkpt>
      <trkpt lat="44.97976" lon="3.03877">
        <ele>966.74</ele>
        <time>2017-02-26T15:13:27Z</time>
      </trkpt>
      <trkpt lat="44.97987" lon="3.03871">
        <ele>968.18</ele>
        <time>2017-02-26T15:13:39Z</time>
      </trkpt>
      <trkpt lat="44.97999" lon="3.03863">
        <ele>969.15</ele>
        <time>2017-02-26T15:13:50Z</time>
      </trkpt>
      <trkpt lat="44.98003" lon="3.03863">
        <ele>969.63</ele>
        <time>2017-02-26T15:13:53Z</time>
      </trkpt>
      <trkpt lat="44.98019" lon="3.03848">
        <ele>971.55</ele>
        <time>2017-02-26T15:14:07Z</time>
      </trkpt>
      <trkpt lat="44.98035" lon="3.03837">
        <ele>972.99</ele>
        <time>2017-02-26T15:14:20Z</time>
      </trkpt>
      <trkpt lat="44.98046" lon="3.03826">
        <ele>974.43</ele>
        <time>2017-02-26T15:14:32Z</time>
      </trkpt>
      <trkpt lat="44.98053" lon="3.03817">
        <ele>976.36</ele>
        <time>2017-02-26T15:14:43Z</time>
      </trkpt>
      <trkpt lat="44.98044" lon="3.03812">
        <ele>976.84</ele>
        <time>2017-02-26T15:14:56Z</time>
      </trkpt>
      <trkpt lat="44.98033" lon="3.03815">
        <ele>977.32</ele>
        <time>2017-02-26T15:15:06Z</time>
      </trkpt>
      <trkpt lat="44.98014" lon="3.03822">
        <ele>977.8</ele>
        <time>2017-02-26T15:15:19Z</time>
      </trkpt>
      <trkpt lat="44.97992" lon="3.03828">
        <ele>978.76</ele>
        <time>2017-02-26T15:15:34Z</time>
      </trkpt>
      <trkpt lat="44.97977" lon="3.03828">
        <ele>979.24</ele>
        <time>2017-02-26T15:15:46Z</time>
      </trkpt>
      <trkpt lat="44.9796" lon="3.03832">
        <ele>980.2</ele>
        <time>2017-02-26T15:16:00Z</time>
      </trkpt>
      <trkpt lat="44.97967" lon="3.03831">
        <ele>980.2</ele>
        <time>2017-02-26T15:16:24Z</time>
      </trkpt>
      <trkpt lat="44.97944" lon="3.03837">
        <ele>980.68</ele>
        <time>2017-02-26T15:16:45Z</time>
      </trkpt>
      <trkpt lat="44.97931" lon="3.03843">
        <ele>981.16</ele>
        <time>2017-02-26T15:16:58Z</time>
      </trkpt>
      <trkpt lat="44.97917" lon="3.03851">
        <ele>982.12</ele>
        <time>2017-02-26T15:17:14Z</time>
      </trkpt>
      <trkpt lat="44.97904" lon="3.0386">
        <ele>982.6</ele>
        <time>2017-02-26T15:17:30Z</time>
      </trkpt>
      <trkpt lat="44.9789" lon="3.03872">
        <ele>983.09</ele>
        <time>2017-02-26T15:17:45Z</time>
      </trkpt>
      <trkpt lat="44.97877" lon="3.03886">
        <ele>984.53</ele>
        <time>2017-02-26T15:18:02Z</time>
      </trkpt>
      <trkpt lat="44.97865" lon="3.03897">
        <ele>985.49</ele>
        <time>2017-02-26T15:18:16Z</time>
      </trkpt>
      <trkpt lat="44.97856" lon="3.03907">
        <ele>985.49</ele>
        <time>2017-02-26T15:18:28Z</time>
      </trkpt>
      <trkpt lat="44.97845" lon="3.0392">
        <ele>986.93</ele>
        <time>2017-02-26T15:18:43Z</time>
      </trkpt>
      <trkpt lat="44.97842" lon="3.03923">
        <ele>986.93</ele>
        <time>2017-02-26T15:18:46Z</time>
      </trkpt>
      <trkpt lat="44.9783" lon="3.03942">
        <ele>987.89</ele>
        <time>2017-02-26T15:19:02Z</time>
      </trkpt>
      <trkpt lat="44.97824" lon="3.03948">
        <ele>988.85</ele>
        <time>2017-02-26T15:19:11Z</time>
      </trkpt>
      <trkpt lat="44.97816" lon="3.03955">
        <ele>989.33</ele>
        <time>2017-02-26T15:19:23Z</time>
      </trkpt>
      <trkpt lat="44.97804" lon="3.03964">
        <ele>990.78</ele>
        <time>2017-02-26T15:19:37Z</time>
      </trkpt>
      <trkpt lat="44.97792" lon="3.03977">
        <ele>992.22</ele>
        <time>2017-02-26T15:19:50Z</time>
      </trkpt>
      <trkpt lat="44.97779" lon="3.03985">
        <ele>994.14</ele>
        <time>2017-02-26T15:20:03Z</time>
      </trkpt>
      <trkpt lat="44.97766" lon="3.03995">
        <ele>996.54</ele>
        <time>2017-02-26T15:20:16Z</time>
      </trkpt>
      <trkpt lat="44.97754" lon="3.03999">
        <ele>997.51</ele>
        <time>2017-02-26T15:20:29Z</time>
      </trkpt>
      <trkpt lat="44.97747" lon="3.04004">
        <ele>997.99</ele>
        <time>2017-02-26T15:20:36Z</time>
      </trkpt>
      <trkpt lat="44.97729" lon="3.04011">
        <ele>998.47</ele>
        <time>2017-02-26T15:20:54Z</time>
      </trkpt>
      <trkpt lat="44.97726" lon="3.04012">
        <ele>998.47</ele>
        <time>2017-02-26T15:20:57Z</time>
      </trkpt>
      <trkpt lat="44.97712" lon="3.04019">
        <ele>998.47</ele>
        <time>2017-02-26T15:21:12Z</time>
      </trkpt>
      <trkpt lat="44.97696" lon="3.04028">
        <ele>997.51</ele>
        <time>2017-02-26T15:21:28Z</time>
      </trkpt>
      <trkpt lat="44.97683" lon="3.04044">
        <ele>997.51</ele>
        <time>2017-02-26T15:21:43Z</time>
      </trkpt>
      <trkpt lat="44.97668" lon="3.04062">
        <ele>995.58</ele>
        <time>2017-02-26T15:22:01Z</time>
      </trkpt>
      <trkpt lat="44.97646" lon="3.04076">
        <ele>993.66</ele>
        <time>2017-02-26T15:22:20Z</time>
      </trkpt>
      <trkpt lat="44.97629" lon="3.04086">
        <ele>993.18</ele>
        <time>2017-02-26T15:22:35Z</time>
      </trkpt>
      <trkpt lat="44.97623" lon="3.04088">
        <ele>991.74</ele>
        <time>2017-02-26T15:22:40Z</time>
      </trkpt>
      <trkpt lat="44.97609" lon="3.04077">
        <ele>988.85</ele>
        <time>2017-02-26T15:22:54Z</time>
      </trkpt>
      <trkpt lat="44.976" lon="3.04067">
        <ele>986.93</ele>
        <time>2017-02-26T15:23:02Z</time>
      </trkpt>
      <trkpt lat="44.97597" lon="3.04061">
        <ele>986.45</ele>
        <time>2017-02-26T15:23:06Z</time>
      </trkpt>
      <trkpt lat="44.97588" lon="3.04045">
        <ele>983.57</ele>
        <time>2017-02-26T15:23:19Z</time>
      </trkpt>
      <trkpt lat="44.97575" lon="3.04025">
        <ele>981.16</ele>
        <time>2017-02-26T15:23:35Z</time>
      </trkpt>
      <trkpt lat="44.97567" lon="3.04001">
        <ele>980.2</ele>
        <time>2017-02-26T15:23:50Z</time>
      </trkpt>
      <trkpt lat="44.97568" lon="3.0399">
        <ele>981.64</ele>
        <time>2017-02-26T15:23:57Z</time>
      </trkpt>
      <trkpt lat="44.97572" lon="3.03971">
        <ele>983.57</ele>
        <time>2017-02-26T15:24:10Z</time>
      </trkpt>
      <trkpt lat="44.97568" lon="3.03943">
        <ele>985.01</ele>
        <time>2017-02-26T15:24:25Z</time>
      </trkpt>
      <trkpt lat="44.97561" lon="3.03918">
        <ele>986.45</ele>
        <time>2017-02-26T15:24:41Z</time>
      </trkpt>
      <trkpt lat="44.9756" lon="3.03912">
        <ele>986.93</ele>
        <time>2017-02-26T15:24:46Z</time>
      </trkpt>
      <trkpt lat="44.9756" lon="3.03909">
        <ele>986.93</ele>
        <time>2017-02-26T15:24:48Z</time>
      </trkpt>
      <trkpt lat="44.97557" lon="3.03895">
        <ele>987.89</ele>
        <time>2017-02-26T15:24:57Z</time>
      </trkpt>
      <trkpt lat="44.97552" lon="3.03872">
        <ele>989.33</ele>
        <time>2017-02-26T15:25:12Z</time>
      </trkpt>
      <trkpt lat="44.97543" lon="3.03853">
        <ele>990.3</ele>
        <time>2017-02-26T15:25:26Z</time>
      </trkpt>
      <trkpt lat="44.97535" lon="3.03836">
        <ele>991.26</ele>
        <time>2017-02-26T15:25:39Z</time>
      </trkpt>
      <trkpt lat="44.97532" lon="3.03829">
        <ele>991.74</ele>
        <time>2017-02-26T15:25:43Z</time>
      </trkpt>
      <trkpt lat="44.9752" lon="3.03802">
        <ele>993.18</ele>
        <time>2017-02-26T15:26:01Z</time>
      </trkpt>
      <trkpt lat="44.9752" lon="3.03796">
        <ele>993.18</ele>
        <time>2017-02-26T15:26:05Z</time>
      </trkpt>
      <trkpt lat="44.97515" lon="3.03783">
        <ele>993.66</ele>
        <time>2017-02-26T15:26:14Z</time>
      </trkpt>
      <trkpt lat="44.9751" lon="3.03757">
        <ele>996.06</ele>
        <time>2017-02-26T15:26:32Z</time>
      </trkpt>
      <trkpt lat="44.97509" lon="3.0374">
        <ele>997.51</ele>
        <time>2017-02-26T15:26:43Z</time>
      </trkpt>
      <trkpt lat="44.97507" lon="3.03716">
        <ele>998.95</ele>
        <time>2017-02-26T15:26:59Z</time>
      </trkpt>
      <trkpt lat="44.97498" lon="3.03695">
        <ele>999.43</ele>
        <time>2017-02-26T15:27:15Z</time>
      </trkpt>
      <trkpt lat="44.97492" lon="3.03683">
        <ele>999.43</ele>
        <time>2017-02-26T15:27:26Z</time>
      </trkpt>
      <trkpt lat="44.9749" lon="3.03679">
        <ele>999.43</ele>
        <time>2017-02-26T15:27:29Z</time>
      </trkpt>
      <trkpt lat="44.9749" lon="3.03671">
        <ele>999.91</ele>
        <time>2017-02-26T15:27:43Z</time>
      </trkpt>
      <trkpt lat="44.9749" lon="3.03671">
        <ele>1000.39</ele>
        <time>2017-02-26T15:28:06Z</time>
      </trkpt>
      <trkpt lat="44.9749" lon="3.03672">
        <ele>1000.39</ele>
        <time>2017-02-26T15:28:26Z</time>
      </trkpt>
      <trkpt lat="44.97489" lon="3.03668">
        <ele>1000.87</ele>
        <time>2017-02-26T15:28:49Z</time>
      </trkpt>
    </trkseg>
  </trk>
</gpx>